Observation data for Panhandle on 07/03/2020      Previous  Date  Next       Current Mesonet Observations  Soil Data  Daily Summary Page  Observations in Plain Language
KPA1 030500Z 16009KT 22/15 A3009 RMK A01 T02200152  RH  065%=      5-min Rain = 0
KPA1 030501Z 16010KT 22/15 A3009 RMK A01 T02200152  RH  065%=      5-min Rain = 0
KPA1 030502Z 17010KT 22/15 A3009 RMK A01 T02210152  RH  065%=      5-min Rain = 0
KPA1 030503Z 17010KT 22/15 A3009 RMK A01 T02220152  RH  064%=      5-min Rain = 0
KPA1 030504Z 17010KT 22/15 A3009 RMK A01 T02230152  RH  064%=      5-min Rain = 0
KPA1 030505Z 17010KT 22/15 A3009 RMK A01 T02230152  RH  064%=      5-min Rain = 0
KPA1 030506Z 17010KT 23/15 A3009 RMK A01 T02250152  RH  063%=      5-min Rain = 0
KPA1 030507Z 17010KT 23/15 A3009 RMK A01 T02270152  RH  063%=      5-min Rain = 0
KPA1 030508Z 18011KT 23/15 A3009 RMK A01 T02280152  RH  062%=      5-min Rain = 0
KPA1 030509Z 18010KT 23/15 A3009 RMK A01 T02290153  RH  062%=      5-min Rain = 0
KPA1 030510Z 19009KT 23/15 A3009 RMK A01 T02290153  RH  062%=      5-min Rain = 0
KPA1 030511Z 19009KT 23/15 A3009 RMK A01 T02290154  RH  062%=      5-min Rain = 0
KPA1 030512Z 19008KT 23/15 A3009 RMK A01 T02280154  RH  063%=      5-min Rain = 0
KPA1 030513Z 20009KT 23/15 A3009 RMK A01 T02260154  RH  064%=      5-min Rain = 0
KPA1 030514Z 20009KT 23/16 A3009 RMK A01 T02250155  RH  065%=      5-min Rain = 0
KPA1 030515Z 20010KT 22/16 A3009 RMK A01 T02230155  RH  065%=      5-min Rain = 0
KPA1 030516Z 20009KT 22/16 A3009 RMK A01 T02230156  RH  066%=      5-min Rain = 0
KPA1 030517Z 21009KT 22/16 A3009 RMK A01 T02220156  RH  066%=      5-min Rain = 0
KPA1 030518Z 20009KT 22/16 A3009 RMK A01 T02220157  RH  067%=      5-min Rain = 0
KPA1 030519Z 20009KT 22/16 A3009 RMK A01 T02210158  RH  067%=      5-min Rain = 0
KPA1 030520Z 20009KT 22/16 A3009 RMK A01 T02210158  RH  068%=      5-min Rain = 0
KPA1 030521Z 20010KT 22/16 A3009 RMK A01 T02200159  RH  068%=      5-min Rain = 0
KPA1 030522Z 19010KT 22/16 A3009 RMK A01 T02200159  RH  069%=      5-min Rain = 0
KPA1 030523Z 19011KT 22/16 A3009 RMK A01 T02200160  RH  068%=      5-min Rain = 0
KPA1 030524Z 18011KT 22/16 A3009 RMK A01 T02210159  RH  068%=      5-min Rain = 0
KPA1 030525Z 18011KT 22/16 A3009 RMK A01 T02230158  RH  067%=      5-min Rain = 0
KPA1 030526Z 18011KT 23/16 A3009 RMK A01 T02260158  RH  066%=      5-min Rain = 0
KPA1 030527Z 18011KT 23/16 A3009 RMK A01 T02270158  RH  065%=      5-min Rain = 0
KPA1 030528Z 18011KT 23/16 A3009 RMK A01 T02290158  RH  064%=      5-min Rain = 0
KPA1 030529Z 18011KT 23/16 A3009 RMK A01 T02300157  RH  064%=      5-min Rain = 0
KPA1 030530Z 18011KT 23/16 A3009 RMK A01 T02310157  RH  063%=      5-min Rain = 0
KPA1 030531Z 18009KT 23/16 A3009 RMK A01 T02320156  RH  062%=      5-min Rain = 0
KPA1 030532Z 18009KT 23/16 A3009 RMK A01 T02340156  RH  062%=      5-min Rain = 0
KPA1 030533Z 18009KT 24/15 A3009 RMK A01 T02350154  RH  060%=      5-min Rain = 0
KPA1 030534Z 17009KT 24/15 A3009 RMK A01 T02370154  RH  060%=      5-min Rain = 0
KPA1 030535Z 17008KT 24/15 A3009 RMK A01 T02380154  RH  059%=      5-min Rain = 0
KPA1 030536Z 17007KT 24/16 A301 RMK A01 T02390155  RH  059%=      5-min Rain = 0
KPA1 030537Z 17009KT 24/16 A301 RMK A01 T02370155  RH  060%=      5-min Rain = 0
KPA1 030538Z 16008KT 24/16 A301 RMK A01 T02370156  RH  060%=      5-min Rain = 0
KPA1 030539Z 17009KT 24/16 A301 RMK A01 T02350156  RH  061%=      5-min Rain = 0
KPA1 030540Z 16008KT 23/16 A301 RMK A01 T02330156  RH  062%=      5-min Rain = 0
KPA1 030541Z 15008KT 23/16 A301 RMK A01 T02320156  RH  062%=      5-min Rain = 0
KPA1 030542Z 14006KT 23/16 A301 RMK A01 T02310158  RH  063%=      5-min Rain = 0
KPA1 030543Z 14006KT 23/16 A301 RMK A01 T02300159  RH  064%=      5-min Rain = 0
KPA1 030544Z 14007KT 23/16 A301 RMK A01 T02280159  RH  065%=      5-min Rain = 0
KPA1 030545Z 15007KT 23/16 A301 RMK A01 T02260160  RH  066%=      5-min Rain = 0
KPA1 030546Z 15007KT 23/16 A301 RMK A01 T02250160  RH  067%=      5-min Rain = 0
KPA1 030547Z 15007KT 22/16 A301 RMK A01 T02240161  RH  067%=      5-min Rain = 0
KPA1 030548Z 15007KT 22/16 A301 RMK A01 T02230161  RH  068%=      5-min Rain = 0
KPA1 030549Z 16007KT 22/16 A301 RMK A01 T02220162  RH  068%=      5-min Rain = 0
KPA1 030550Z 16007KT 22/16 A301 RMK A01 T02210162  RH  069%=      5-min Rain = 0
KPA1 030551Z 16008KT 22/16 A301 RMK A01 T02200161  RH  069%=      5-min Rain = 0
KPA1 030552Z 16008KT 22/16 A301 RMK A01 T02210161  RH  069%=      5-min Rain = 0
KPA1 030553Z 16008KT 22/16 A301 RMK A01 T02210161  RH  069%=      5-min Rain = 0
KPA1 030554Z 17008KT 22/16 A301 RMK A01 T02220162  RH  068%=      5-min Rain = 0
KPA1 030555Z 16008KT 22/16 A301 RMK A01 T02230162  RH  068%=      5-min Rain = 0
KPA1 030556Z 16008KT 22/16 A301 RMK A01 T02240162  RH  068%=      5-min Rain = 0
KPA1 030557Z 16008KT 22/16 A3009 RMK A01 T02240163  RH  068%=      5-min Rain = 0
KPA1 030558Z 16007KT 22/16 A3009 RMK A01 T02240163  RH  068%=      5-min Rain = 0
KPA1 030559Z 16008KT 22/16 A3009 RMK A01 T02240163  RH  069%=      5-min Rain = 0
KPA1 030600Z 16007KT 22/16 A3009 RMK A01 T02240164  RH  069%=      5-min Rain = 0
KPA1 030601Z 16007KT 22/16 A3009 RMK A01 T02230164  RH  069%=      5-min Rain = 0
KPA1 030602Z 16008KT 22/16 A3009 RMK A01 T02230164  RH  069%=      5-min Rain = 0
KPA1 030603Z 16008KT 22/17 A3009 RMK A01 T02240165  RH  069%=      5-min Rain = 0
KPA1 030604Z 16008KT 22/17 A3009 RMK A01 T02240165  RH  069%=      5-min Rain = 0
KPA1 030605Z 16009KT 22/17 A3009 RMK A01 T02240165  RH  069%=      5-min Rain = 0
KPA1 030606Z 16008KT 23/17 A3009 RMK A01 T02250166  RH  069%=      5-min Rain = 0
KPA1 030607Z 16009KT 23/17 A3009 RMK A01 T02250166  RH  070%=      5-min Rain = 0
KPA1 030608Z 16010KT 23/17 A3009 RMK A01 T02260167  RH  070%=      5-min Rain = 0
KPA1 030609Z 16009KT 23/17 A3009 RMK A01 T02260168  RH  070%=      5-min Rain = 0
KPA1 030610Z 16010KT 23/17 A3009 RMK A01 T02270169  RH  070%=      5-min Rain = 0
KPA1 030611Z 16010KT 23/17 A3009 RMK A01 T02270170  RH  070%=      5-min Rain = 0
KPA1 030612Z 16011KT 23/17 A3009 RMK A01 T02270170  RH  070%=      5-min Rain = 0
KPA1 030613Z 15012KT 23/17 A3009 RMK A01 T02270171  RH  071%=      5-min Rain = 0
KPA1 030614Z 16012KT 23/17 A3009 RMK A01 T02280172  RH  070%=      5-min Rain = 0
KPA1 030615Z 16012KT 23/17 A3008 RMK A01 T02290172  RH  070%=      5-min Rain = 0
KPA1 030616Z 16012KT 23/17 A3008 RMK A01 T02300173  RH  070%=      5-min Rain = 0
KPA1 030617Z 16011KT 23/17 A3008 RMK A01 T02300173  RH  070%=      5-min Rain = 0
KPA1 030618Z 16011KT 23/17 A3008 RMK A01 T02310173  RH  070%=      5-min Rain = 0
KPA1 030619Z 16010KT 23/17 A3008 RMK A01 T02310173  RH  070%=      5-min Rain = 0
KPA1 030620Z 16011KT 23/17 A3008 RMK A01 T02310173  RH  070%=      5-min Rain = 0
KPA1 030621Z 16010KT 23/17 A3008 RMK A01 T02320173  RH  069%=      5-min Rain = 0
KPA1 030622Z 16010KT 23/17 A3008 RMK A01 T02330173  RH  069%=      5-min Rain = 0
KPA1 030623Z 16010KT 23/17 A3008 RMK A01 T02330174  RH  069%=      5-min Rain = 0
KPA1 030624Z 16009KT 23/17 A3008 RMK A01 T02320174  RH  070%=      5-min Rain = 0
KPA1 030625Z 16008KT 23/17 A3008 RMK A01 T02320174  RH  070%=      5-min Rain = 0
KPA1 030626Z 15008KT 23/18 A3008 RMK A01 T02310175  RH  071%=      5-min Rain = 0
KPA1 030627Z 15008KT 23/17 A3008 RMK A01 T02290174  RH  071%=      5-min Rain = 0
KPA1 030628Z 15008KT 23/18 A3008 RMK A01 T02280175  RH  072%=      5-min Rain = 0
KPA1 030629Z 15008KT 23/18 A3008 RMK A01 T02270176  RH  073%=      5-min Rain = 0
KPA1 030630Z 15008KT 23/18 A3008 RMK A01 T02260176  RH  073%=      5-min Rain = 0
KPA1 030631Z 15007KT 23/18 A3008 RMK A01 T02250176  RH  074%=      5-min Rain = 0
KPA1 030632Z 15008KT 22/18 A3008 RMK A01 T02240176  RH  074%=      5-min Rain = 0
KPA1 030633Z 15008KT 22/18 A3008 RMK A01 T02240176  RH  074%=      5-min Rain = 0
KPA1 030634Z 15009KT 22/18 A3008 RMK A01 T02240176  RH  074%=      5-min Rain = 0
KPA1 030635Z 15009KT 23/18 A3008 RMK A01 T02250176  RH  074%=      5-min Rain = 0
KPA1 030636Z 15008KT 23/18 A3008 RMK A01 T02260177  RH  074%=      5-min Rain = 0
KPA1 030637Z 14009KT 23/18 A3008 RMK A01 T02260177  RH  074%=      5-min Rain = 0
KPA1 030638Z 14009KT 23/18 A3008 RMK A01 T02250177  RH  074%=      5-min Rain = 0
KPA1 030639Z 13009KT 22/18 A3008 RMK A01 T02240177  RH  074%=      5-min Rain = 0
KPA1 030640Z 13009KT 22/18 A3008 RMK A01 T02240177  RH  075%=      5-min Rain = 0
KPA1 030641Z 13008KT 22/18 A3008 RMK A01 T02230177  RH  075%=      5-min Rain = 0
KPA1 030642Z 15008KT 22/18 A3008 RMK A01 T02210177  RH  076%=      5-min Rain = 0
KPA1 030643Z 16009KT 22/18 A3008 RMK A01 T02200177  RH  076%=      5-min Rain = 0
KPA1 030644Z 16009KT 22/18 A3008 RMK A01 T02200177  RH  077%=      5-min Rain = 0
KPA1 030645Z 17009KT 22/18 A3007 RMK A01 T02190177  RH  077%=      5-min Rain = 0
KPA1 030646Z 16008KT 22/18 A3007 RMK A01 T02190177  RH  077%=      5-min Rain = 0
KPA1 030647Z 16008KT 22/18 A3007 RMK A01 T02190177  RH  077%=      5-min Rain = 0
KPA1 030648Z 16008KT 22/18 A3007 RMK A01 T02190177  RH  077%=      5-min Rain = 0
KPA1 030649Z 16009KT 22/18 A3007 RMK A01 T02190177  RH  077%=      5-min Rain = 0
KPA1 030650Z 16011KT 22/18 A3007 RMK A01 T02180177  RH  077%=      5-min Rain = 0
KPA1 030651Z 16013KT 22/18 A3007 RMK A01 T02180177  RH  078%=      5-min Rain = 0
KPA1 030652Z 16013KT 22/18 A3007 RMK A01 T02180177  RH  077%=      5-min Rain = 0
KPA1 030653Z 16013KT 22/18 A3007 RMK A01 T02200178  RH  077%=      5-min Rain = 0
KPA1 030654Z 17012KT 23/18 A3007 RMK A01 T02250178  RH  075%=      5-min Rain = 0
KPA1 030655Z 16011KT 23/18 A3007 RMK A01 T02300179  RH  073%=      5-min Rain = 0
KPA1 030656Z 15008KT 23/18 A3007 RMK A01 T02340179  RH  071%=      5-min Rain = 0
KPA1 030657Z 15008KT 23/18 A3007 RMK A01 T02320178  RH  072%=      5-min Rain = 0
KPA1 030658Z 15008KT 23/18 A3007 RMK A01 T02300178  RH  072%=      5-min Rain = 0
KPA1 030659Z 14006KT 23/18 A3007 RMK A01 T02280177  RH  073%=      5-min Rain = 0
KPA1 030700Z 14006KT 23/18 A3007 RMK A01 T02260177  RH  074%=      5-min Rain = 0
KPA1 030701Z 14006KT 22/18 A3008 RMK A01 T02240177  RH  075%=      5-min Rain = 0
KPA1 030702Z 14007KT 22/18 A3008 RMK A01 T02210177  RH  076%=      5-min Rain = 0
KPA1 030703Z 13007KT 22/18 A3008 RMK A01 T02190177  RH  077%=      5-min Rain = 0
KPA1 030704Z 13007KT 22/18 A3007 RMK A01 T02180178  RH  078%=      5-min Rain = 0
KPA1 030705Z 13007KT 22/18 A3007 RMK A01 T02170178  RH  078%=      5-min Rain = 0
KPA1 030706Z 13007KT 22/18 A3007 RMK A01 T02160178  RH  079%=      5-min Rain = 0
KPA1 030707Z 13007KT 22/18 A3007 RMK A01 T02160178  RH  079%=      5-min Rain = 0
KPA1 030708Z 13006KT 22/18 A3007 RMK A01 T02150178  RH  079%=      5-min Rain = 0
KPA1 030709Z 14007KT 22/18 A3007 RMK A01 T02150178  RH  079%=      5-min Rain = 0
KPA1 030710Z 14007KT 21/18 A3007 RMK A01 T02140178  RH  080%=      5-min Rain = 0
KPA1 030711Z 14007KT 21/18 A3007 RMK A01 T02130178  RH  080%=      5-min Rain = 0
KPA1 030712Z 14006KT 21/18 A3007 RMK A01 T02130178  RH  080%=      5-min Rain = 0
KPA1 030713Z 14006KT 21/18 A3007 RMK A01 T02120178  RH  081%=      5-min Rain = 0
KPA1 030714Z 14006KT 21/18 A3007 RMK A01 T02120178  RH  081%=      5-min Rain = 0
KPA1 030715Z 13006KT 21/18 A3007 RMK A01 T02100178  RH  082%=      5-min Rain = 0
KPA1 030716Z 14006KT 21/18 A3007 RMK A01 T02100178  RH  082%=      5-min Rain = 0
KPA1 030717Z 14006KT 21/18 A3007 RMK A01 T02100178  RH  082%=      5-min Rain = 0
KPA1 030718Z 14007KT 21/18 A3007 RMK A01 T02110178  RH  082%=      5-min Rain = 0
KPA1 030719Z 14007KT 21/18 A3007 RMK A01 T02110178  RH  081%=      5-min Rain = 0
KPA1 030720Z 14007KT 21/18 A3007 RMK A01 T02120179  RH  081%=      5-min Rain = 0
KPA1 030721Z 13008KT 21/18 A3007 RMK A01 T02130179  RH  081%=      5-min Rain = 0
KPA1 030722Z 14008KT 21/18 A3007 RMK A01 T02140179  RH  080%=      5-min Rain = 0
KPA1 030723Z 13008KT 21/18 A3007 RMK A01 T02140179  RH  080%=      5-min Rain = 0
KPA1 030724Z 13008KT 21/18 A3007 RMK A01 T02140179  RH  080%=      5-min Rain = 0
KPA1 030725Z 14007KT 22/18 A3007 RMK A01 T02150179  RH  080%=      5-min Rain = 0
KPA1 030726Z 14007KT 22/18 A3007 RMK A01 T02150179  RH  080%=      5-min Rain = 0
KPA1 030727Z 14007KT 21/18 A3007 RMK A01 T02140179  RH  080%=      5-min Rain = 0
KPA1 030728Z 14007KT 21/18 A3007 RMK A01 T02140179  RH  080%=      5-min Rain = 0
KPA1 030729Z 13007KT 21/18 A3007 RMK A01 T02140179  RH  081%=      5-min Rain = 0
KPA1 030730Z 13007KT 21/18 A3007 RMK A01 T02130179  RH  081%=      5-min Rain = 0
KPA1 030731Z 12007KT 21/18 A3007 RMK A01 T02130180  RH  081%=      5-min Rain = 0
KPA1 030732Z 12008KT 21/18 A3007 RMK A01 T02120179  RH  082%=      5-min Rain = 0
KPA1 030733Z 12008KT 21/18 A3007 RMK A01 T02100179  RH  082%=      5-min Rain = 0
KPA1 030734Z 12008KT 21/18 A3007 RMK A01 T02080179  RH  083%=      5-min Rain = 0
KPA1 030735Z 13007KT 21/18 A3007 RMK A01 T02070179  RH  084%=      5-min Rain = 0
KPA1 030736Z 13006KT 21/18 A3007 RMK A01 T02070179  RH  084%=      5-min Rain = 0
KPA1 030737Z 14006KT 21/18 A3007 RMK A01 T02060179  RH  084%=      5-min Rain = 0
KPA1 030738Z 14007KT 21/18 A3007 RMK A01 T02070179  RH  084%=      5-min Rain = 0
KPA1 030739Z 14007KT 21/18 A3007 RMK A01 T02080179  RH  083%=      5-min Rain = 0
KPA1 030740Z 14006KT 21/18 A3007 RMK A01 T02100179  RH  083%=      5-min Rain = 0
KPA1 030741Z 14006KT 21/18 A3007 RMK A01 T02110179  RH  082%=      5-min Rain = 0
KPA1 030742Z 14006KT 21/18 A3007 RMK A01 T02110180  RH  082%=      5-min Rain = 0
KPA1 030743Z 14007KT 21/18 A3007 RMK A01 T02100179  RH  083%=      5-min Rain = 0
KPA1 030744Z 14007KT 21/18 A3007 RMK A01 T02080179  RH  083%=      5-min Rain = 0
KPA1 030745Z 14007KT 21/18 A3007 RMK A01 T02060179  RH  084%=      5-min Rain = 0
KPA1 030746Z 14007KT 21/18 A3007 RMK A01 T02060179  RH  085%=      5-min Rain = 0
KPA1 030747Z 14008KT 21/18 A3007 RMK A01 T02060180  RH  085%=      5-min Rain = 0
KPA1 030748Z 14007KT 21/18 A3007 RMK A01 T02060180  RH  085%=      5-min Rain = 0
KPA1 030749Z 14008KT 21/18 A3007 RMK A01 T02060180  RH  085%=      5-min Rain = 0
KPA1 030750Z 15008KT 21/18 A3007 RMK A01 T02060180  RH  085%=      5-min Rain = 0
KPA1 030751Z 15007KT 21/18 A3007 RMK A01 T02060180  RH  085%=      5-min Rain = 0
KPA1 030752Z 15007KT 21/18 A3007 RMK A01 T02050180  RH  085%=      5-min Rain = 0
KPA1 030753Z 15007KT 20/18 A3007 RMK A01 T02040180  RH  086%=      5-min Rain = 0
KPA1 030754Z 15007KT 20/18 A3007 RMK A01 T02030180  RH  087%=      5-min Rain = 0
KPA1 030755Z 15007KT 20/18 A3007 RMK A01 T02020180  RH  087%=      5-min Rain = 0
KPA1 030756Z 14006KT 20/18 A3007 RMK A01 T02010180  RH  088%=      5-min Rain = 0
KPA1 030757Z 14006KT 20/18 A3007 RMK A01 T02010180  RH  088%=      5-min Rain = 0
KPA1 030758Z 14006KT 20/18 A3007 RMK A01 T02000180  RH  088%=      5-min Rain = 0
KPA1 030759Z 14006KT 20/18 A3007 RMK A01 T02000180  RH  088%=      5-min Rain = 0
KPA1 030800Z 14005KT 20/18 A3007 RMK A01 T02000180  RH  088%=      5-min Rain = 0
KPA1 030801Z 14005KT 20/18 A3007 RMK A01 T02010181  RH  088%=      5-min Rain = 0
KPA1 030802Z 15005KT 20/18 A3007 RMK A01 T02010181  RH  088%=      5-min Rain = 0
KPA1 030803Z 16006KT 20/18 A3007 RMK A01 T02010180  RH  088%=      5-min Rain = 0
KPA1 030804Z 17005KT 20/18 A3007 RMK A01 T02000180  RH  088%=      5-min Rain = 0
KPA1 030805Z 18005KT 20/18 A3007 RMK A01 T01980178  RH  088%=      5-min Rain = 0
KPA1 030806Z 19004KT 20/18 A3007 RMK A01 T01960177  RH  089%=      5-min Rain = 0
KPA1 030807Z 19004KT 19/18 A3007 RMK A01 T01940178  RH  090%=      5-min Rain = 0
KPA1 030808Z 21004KT 19/18 A3007 RMK A01 T01930178  RH  091%=      5-min Rain = 0
KPA1 030809Z 22004KT 19/18 A3007 RMK A01 T01920177  RH  091%=      5-min Rain = 0
KPA1 030810Z 22004KT 19/18 A3007 RMK A01 T01910178  RH  092%=      5-min Rain = 0
KPA1 030811Z 22004KT 19/18 A3007 RMK A01 T01900178  RH  093%=      5-min Rain = 0
KPA1 030812Z 22004KT 19/18 A3006 RMK A01 T01900179  RH  093%=      5-min Rain = 0
KPA1 030813Z 21004KT 19/18 A3006 RMK A01 T01900179  RH  093%=      5-min Rain = 0
KPA1 030814Z 22004KT 19/18 A3006 RMK A01 T01900179  RH  094%=      5-min Rain = 0
KPA1 030815Z 22004KT 19/18 A3006 RMK A01 T01910180  RH  093%=      5-min Rain = 0
KPA1 030816Z 21004KT 19/18 A3006 RMK A01 T01910180  RH  093%=      5-min Rain = 0
KPA1 030817Z 22004KT 19/18 A3006 RMK A01 T01920181  RH  093%=      5-min Rain = 0
KPA1 030818Z 23005KT 19/18 A3006 RMK A01 T01910180  RH  093%=      5-min Rain = 0
KPA1 030819Z 23005KT 19/18 A3006 RMK A01 T01920181  RH  093%=      5-min Rain = 0
KPA1 030820Z 23005KT 19/18 A3006 RMK A01 T01910180  RH  094%=      5-min Rain = 0
KPA1 030821Z 22004KT 19/18 A3006 RMK A01 T01910181  RH  094%=      5-min Rain = 0
KPA1 030822Z 21004KT 19/18 A3006 RMK A01 T01910182  RH  094%=      5-min Rain = 0
KPA1 030823Z 20004KT 19/18 A3006 RMK A01 T01910182  RH  094%=      5-min Rain = 0
KPA1 030824Z 19003KT 19/18 A3006 RMK A01 T01910181  RH  094%=      5-min Rain = 0
KPA1 030825Z 18003KT 19/18 A3006 RMK A01 T01910181  RH  094%=      5-min Rain = 0
KPA1 030826Z 17002KT 19/18 A3006 RMK A01 T01910181  RH  094%=      5-min Rain = 0
KPA1 030827Z 15002KT 19/18 A3007 RMK A01 T01910180  RH  094%=      5-min Rain = 0
KPA1 030828Z 14002KT 19/18 A3007 RMK A01 T01910180  RH  093%=      5-min Rain = 0
KPA1 030829Z 14002KT 19/18 A3007 RMK A01 T01910180  RH  093%=      5-min Rain = 0
KPA1 030830Z 13002KT 19/18 A3007 RMK A01 T01900179  RH  093%=      5-min Rain = 0
KPA1 030831Z 12003KT 19/18 A3007 RMK A01 T01900178  RH  093%=      5-min Rain = 0
KPA1 030832Z 12003KT 19/18 A3007 RMK A01 T01890178  RH  093%=      5-min Rain = 0
KPA1 030833Z 13004KT 19/18 A3007 RMK A01 T01880178  RH  094%=      5-min Rain = 0
KPA1 030834Z 14004KT 19/18 A3007 RMK A01 T01880177  RH  094%=      5-min Rain = 0
KPA1 030835Z 14005KT 19/18 A3007 RMK A01 T01880177  RH  094%=      5-min Rain = 0
KPA1 030836Z 15005KT 19/18 A3007 RMK A01 T01880177  RH  094%=      5-min Rain = 0
KPA1 030837Z 15004KT 19/18 A3007 RMK A01 T01880177  RH  094%=      5-min Rain = 0
KPA1 030838Z 16004KT 19/18 A3007 RMK A01 T01870177  RH  094%=      5-min Rain = 0
KPA1 030839Z 16004KT 19/18 A3007 RMK A01 T01880177  RH  094%=      5-min Rain = 0
KPA1 030840Z 17004KT 19/18 A3007 RMK A01 T01880178  RH  094%=      5-min Rain = 0
KPA1 030841Z 16004KT 19/18 A3007 RMK A01 T01880179  RH  094%=      5-min Rain = 0
KPA1 030842Z 16003KT 19/18 A3007 RMK A01 T01880179  RH  094%=      5-min Rain = 0
KPA1 030843Z 16003KT 19/18 A3007 RMK A01 T01890179  RH  094%=      5-min Rain = 0
KPA1 030844Z 16003KT 19/18 A3007 RMK A01 T01890179  RH  094%=      5-min Rain = 0
KPA1 030845Z 16003KT 19/18 A3007 RMK A01 T01890179  RH  094%=      5-min Rain = 0
KPA1 030846Z 17003KT 19/18 A3007 RMK A01 T01890179  RH  094%=      5-min Rain = 0
KPA1 030847Z 18002KT 19/18 A3007 RMK A01 T01900179  RH  093%=      5-min Rain = 0
KPA1 030848Z 18002KT 19/18 A3007 RMK A01 T01910180  RH  093%=      5-min Rain = 0
KPA1 030849Z 18002KT 19/18 A3007 RMK A01 T01920180  RH  093%=      5-min Rain = 0
KPA1 030850Z 17002KT 19/18 A3007 RMK A01 T01930180  RH  092%=      5-min Rain = 0
KPA1 030851Z 17002KT 19/18 A3007 RMK A01 T01930180  RH  092%=      5-min Rain = 0
KPA1 030852Z 16002KT 19/18 A3007 RMK A01 T01930179  RH  092%=      5-min Rain = 0
KPA1 030853Z 16002KT 19/18 A3007 RMK A01 T01940179  RH  091%=      5-min Rain = 0
KPA1 030854Z 16002KT 19/18 A3007 RMK A01 T01940179  RH  091%=      5-min Rain = 0
KPA1 030855Z 16002KT 19/18 A3007 RMK A01 T01940179  RH  091%=      5-min Rain = 0
KPA1 030856Z 17002KT 19/18 A3007 RMK A01 T01940179  RH  091%=      5-min Rain = 0
KPA1 030857Z 18003KT 20/18 A3007 RMK A01 T01950179  RH  091%=      5-min Rain = 0
KPA1 030858Z 18003KT 20/18 A3007 RMK A01 T01950179  RH  090%=      5-min Rain = 0
KPA1 030859Z 18003KT 20/18 A3007 RMK A01 T01950178  RH  090%=      5-min Rain = 0
KPA1 030900Z 19003KT 20/18 A3007 RMK A01 T01950179  RH  091%=      5-min Rain = 0
KPA1 030901Z 19003KT 20/18 A3007 RMK A01 T01950180  RH  091%=      5-min Rain = 0
KPA1 030902Z 20003KT 20/18 A3007 RMK A01 T01950180  RH  091%=      5-min Rain = 0
KPA1 030903Z 20003KT 20/18 A3007 RMK A01 T01960181  RH  091%=      5-min Rain = 0
KPA1 030904Z 21003KT 20/18 A3007 RMK A01 T01970181  RH  090%=      5-min Rain = 0
KPA1 030905Z 22003KT 20/18 A3007 RMK A01 T01980181  RH  090%=      5-min Rain = 0
KPA1 030906Z 22003KT 20/18 A3007 RMK A01 T01980181  RH  089%=      5-min Rain = 0
KPA1 030907Z 22003KT 20/18 A3007 RMK A01 T01990181  RH  089%=      5-min Rain = 0
KPA1 030908Z 22003KT 20/18 A3007 RMK A01 T02000180  RH  089%=      5-min Rain = 0
KPA1 030909Z 22003KT 20/18 A3007 RMK A01 T02000180  RH  088%=      5-min Rain = 0
KPA1 030910Z 22003KT 20/18 A3007 RMK A01 T01990179  RH  088%=      5-min Rain = 0
KPA1 030911Z 22003KT 20/18 A3007 RMK A01 T01970178  RH  088%=      5-min Rain = 0
KPA1 030912Z 22003KT 20/18 A3007 RMK A01 T01960178  RH  089%=      5-min Rain = 0
KPA1 030913Z 22003KT 20/18 A3007 RMK A01 T01950178  RH  090%=      5-min Rain = 0
KPA1 030914Z 22003KT 20/18 A3007 RMK A01 T01950179  RH  091%=      5-min Rain = 0
KPA1 030915Z 22003KT 19/18 A3007 RMK A01 T01940179  RH  091%=      5-min Rain = 0
KPA1 030916Z 22003KT 19/18 A3007 RMK A01 T01940179  RH  091%=      5-min Rain = 0
KPA1 030917Z 22003KT 19/18 A3007 RMK A01 T01930178  RH  091%=      5-min Rain = 0
KPA1 030918Z 22003KT 19/18 A3007 RMK A01 T01920178  RH  091%=      5-min Rain = 0
KPA1 030919Z 22003KT 19/18 A3007 RMK A01 T01920178  RH  092%=      5-min Rain = 0
KPA1 030920Z 22003KT 19/18 A3007 RMK A01 T01920179  RH  092%=      5-min Rain = 0
KPA1 030921Z 22002KT 19/18 A3007 RMK A01 T01920178  RH  092%=      5-min Rain = 0
KPA1 030922Z 23002KT 19/18 A3007 RMK A01 T01920179  RH  092%=      5-min Rain = 0
KPA1 030923Z 23002KT 19/18 A3007 RMK A01 T01920179  RH  092%=      5-min Rain = 0
KPA1 030924Z 23002KT 19/18 A3007 RMK A01 T01920180  RH  092%=      5-min Rain = 0
KPA1 030925Z 23002KT 19/18 A3007 RMK A01 T01930180  RH  092%=      5-min Rain = 0
KPA1 030926Z 23002KT 19/18 A3007 RMK A01 T01940181  RH  092%=      5-min Rain = 0
KPA1 030927Z 23002KT 20/18 A3007 RMK A01 T01950181  RH  092%=      5-min Rain = 0
KPA1 030928Z 23002KT 20/18 A3007 RMK A01 T01950180  RH  091%=      5-min Rain = 0
KPA1 030929Z 23002KT 20/18 A3007 RMK A01 T01960180  RH  091%=      5-min Rain = 0
KPA1 030930Z 23002KT 20/18 A3007 RMK A01 T01960180  RH  091%=      5-min Rain = 0
KPA1 030931Z 23003KT 20/18 A3007 RMK A01 T01960180  RH  090%=      5-min Rain = 0
KPA1 030932Z 23003KT 20/18 A3007 RMK A01 T01960180  RH  090%=      5-min Rain = 0
KPA1 030933Z 23003KT 20/18 A3007 RMK A01 T01960180  RH  090%=      5-min Rain = 0
KPA1 030934Z 23003KT 20/18 A3007 RMK A01 T01960181  RH  091%=      5-min Rain = 0
KPA1 030935Z 23003KT 20/18 A3006 RMK A01 T01970181  RH  090%=      5-min Rain = 0
KPA1 030936Z 24003KT 20/18 A3006 RMK A01 T01970181  RH  090%=      5-min Rain = 0
KPA1 030937Z 24004KT 20/18 A3006 RMK A01 T01980180  RH  090%=      5-min Rain = 0
KPA1 030938Z 24004KT 20/18 A3006 RMK A01 T01970179  RH  089%=      5-min Rain = 0
KPA1 030939Z 23005KT 20/18 A3006 RMK A01 T01950177  RH  090%=      5-min Rain = 0
KPA1 030940Z 23005KT 19/18 A3006 RMK A01 T01930176  RH  090%=      5-min Rain = 0
KPA1 030941Z 22004KT 19/17 A3007 RMK A01 T01900174  RH  090%=      5-min Rain = 0
KPA1 030942Z 22004KT 19/17 A3007 RMK A01 T01880174  RH  091%=      5-min Rain = 0
KPA1 030943Z 21003KT 19/17 A3007 RMK A01 T01860171  RH  091%=      5-min Rain = 0
KPA1 030944Z 20002KT 18/17 A3007 RMK A01 T01840172  RH  092%=      5-min Rain = 0
KPA1 030945Z 20002KT 18/17 A3007 RMK A01 T01820171  RH  093%=      5-min Rain = 0
KPA1 030946Z 19002KT 18/17 A3007 RMK A01 T01810171  RH  094%=      5-min Rain = 0
KPA1 030947Z 17002KT 18/17 A3007 RMK A01 T01790172  RH  095%=      5-min Rain = 0
KPA1 030948Z 17002KT 18/17 A3007 RMK A01 T01790173  RH  096%=      5-min Rain = 0
KPA1 030949Z 16002KT 18/17 A3007 RMK A01 T01780174  RH  097%=      5-min Rain = 0
KPA1 030950Z 15002KT 18/17 A3007 RMK A01 T01790174  RH  097%=      5-min Rain = 0
KPA1 030951Z 14002KT 18/17 A3007 RMK A01 T01790174  RH  097%=      5-min Rain = 0
KPA1 030952Z 13002KT 18/17 A3007 RMK A01 T01790174  RH  097%=      5-min Rain = 0
KPA1 030953Z 12002KT 18/17 A3008 RMK A01 T01780174  RH  098%=      5-min Rain = 0
KPA1 030954Z 12002KT 18/18 A3008 RMK A01 T01780175  RH  098%=      5-min Rain = 0
KPA1 030955Z 11003KT 18/18 A3008 RMK A01 T01790175  RH  098%=      5-min Rain = 0
KPA1 030956Z 10004KT 18/18 A3008 RMK A01 T01790176  RH  098%=      5-min Rain = 0
KPA1 030957Z 10008KT 18/18 A3008 RMK A01 T01790176  RH  098%=      5-min Rain = 0
KPA1 030958Z 09011KT 18/18 A3008 RMK A01 T01800178  RH  098%=      5-min Rain = 0
KPA1 030959Z 09010KT 18/18 A3008 RMK A01 T01820180  RH  099%=      5-min Rain = 0
KPA1 031000Z 09009KT 18/18 A3008 RMK A01 T01830180  RH  098%=      5-min Rain = 0
KPA1 031001Z 08011KT 18/18 A3008 RMK A01 T01840180  RH  098%=      5-min Rain = 0
KPA1 031002Z 09012KT 19/18 A3008 RMK A01 T01850181  RH  098%=      5-min Rain = 0
KPA1 031003Z 09011KT 19/18 A3008 RMK A01 T01870183  RH  097%=      5-min Rain = 0
KPA1 031004Z 10010KT 19/18 A3008 RMK A01 T01900183  RH  096%=      5-min Rain = 0
KPA1 031005Z 10010KT 19/18 A3008 RMK A01 T01910183  RH  095%=      5-min Rain = 0
KPA1 031006Z 11009KT 19/18 A3008 RMK A01 T01930183  RH  093%=      5-min Rain = 0
KPA1 031007Z 11008KT 20/18 A3008 RMK A01 T01950182  RH  093%=      5-min Rain = 0
KPA1 031008Z 11008KT 20/18 A3008 RMK A01 T01950181  RH  092%=      5-min Rain = 0
KPA1 031009Z 12008KT 20/18 A3008 RMK A01 T01960181  RH  091%=      5-min Rain = 0
KPA1 031010Z 12007KT 20/18 A3008 RMK A01 T01960181  RH  091%=      5-min Rain = 0
KPA1 031011Z 11007KT 20/18 A3008 RMK A01 T01960181  RH  091%=      5-min Rain = 0
KPA1 031012Z 12006KT 20/18 A3008 RMK A01 T01960181  RH  091%=      5-min Rain = 0
KPA1 031013Z 12007KT 20/18 A3009 RMK A01 T01960181  RH  091%=      5-min Rain = 0
KPA1 031014Z 11007KT 20/18 A3009 RMK A01 T01960182  RH  091%=      5-min Rain = 0
KPA1 031015Z 11007KT 20/18 A3009 RMK A01 T01960181  RH  092%=      5-min Rain = 0
KPA1 031016Z 11007KT 20/18 A3009 RMK A01 T01960182  RH  092%=      5-min Rain = 0
KPA1 031017Z 11007KT 20/18 A3009 RMK A01 T01950182  RH  092%=      5-min Rain = 0
KPA1 031018Z 10007KT 20/18 A3009 RMK A01 T01950181  RH  092%=      5-min Rain = 0
KPA1 031019Z 10006KT 19/18 A3009 RMK A01 T01940181  RH  092%=      5-min Rain = 0
KPA1 031020Z 10006KT 19/18 A3009 RMK A01 T01940181  RH  092%=      5-min Rain = 0
KPA1 031021Z 09006KT 19/18 A3009 RMK A01 T01930181  RH  093%=      5-min Rain = 0
KPA1 031022Z 09006KT 19/18 A3009 RMK A01 T01920181  RH  093%=      5-min Rain = 0
KPA1 031023Z 09007KT 19/18 A3009 RMK A01 T01910181  RH  094%=      5-min Rain = 0
KPA1 031024Z 09007KT 19/18 A3009 RMK A01 T01910182  RH  094%=      5-min Rain = 0
KPA1 031025Z 08007KT 19/18 A3009 RMK A01 T01910182  RH  094%=      5-min Rain = 0
KPA1 031026Z 08007KT 19/18 A3009 RMK A01 T01910182  RH  094%=      5-min Rain = 0
KPA1 031027Z 08006KT 19/18 A3009 RMK A01 T01910182  RH  094%=      5-min Rain = 0
KPA1 031028Z 07006KT 19/18 A3009 RMK A01 T01910182  RH  094%=      5-min Rain = 0
KPA1 031029Z 06006KT 19/18 A301 RMK A01 T01900181  RH  095%=      5-min Rain = 0
KPA1 031030Z 06006KT 19/18 A301 RMK A01 T01900181  RH  095%=      5-min Rain = 0
KPA1 031031Z 05005KT 19/18 A301 RMK A01 T01890181  RH  095%=      5-min Rain = 0
KPA1 031032Z 05005KT 19/18 A301 RMK A01 T01880180  RH  095%=      5-min Rain = 0
KPA1 031033Z 05005KT 19/18 A301 RMK A01 T01870180  RH  095%=      5-min Rain = 0
KPA1 031034Z 04006KT 19/18 A301 RMK A01 T01870180  RH  095%=      5-min Rain = 0
KPA1 031035Z 03007KT 19/18 A301 RMK A01 T01870180  RH  096%=      5-min Rain = 0
KPA1 031036Z 03009KT 19/18 A301 RMK A01 T01870180  RH  096%=      5-min Rain = 0
KPA1 031037Z 03010KT 19/18 A301 RMK A01 T01880181  RH  096%=      5-min Rain = 0
KPA1 031038Z 03010KT 19/18 A3011 RMK A01 T01910183  RH  096%=      5-min Rain = 0
KPA1 031039Z 04009KT 19/18 A3011 RMK A01 T01930183  RH  094%=      5-min Rain = 0
KPA1 031040Z 04008KT 19/18 A3011 RMK A01 T01940182  RH  093%=      5-min Rain = 0
KPA1 031041Z 05007KT 20/18 A3011 RMK A01 T01950182  RH  092%=      5-min Rain = 0
KPA1 031042Z 05010KT 20/18 A3011 RMK A01 T01950182  RH  092%=      5-min Rain = 0
KPA1 031043Z 04011KT 19/18 A3011 RMK A01 T01940183  RH  093%=      5-min Rain = 0
KPA1 031044Z 05012KT 20/18 A3011 RMK A01 T01960183  RH  092%=      5-min Rain = 0
KPA1 031045Z 05011KT 20/18 A3011 RMK A01 T01980184  RH  091%=      5-min Rain = 0
KPA1 031046Z 06011KT 20/18 A3011 RMK A01 T02000184  RH  091%=      5-min Rain = 0
KPA1 031047Z 06010KT 20/18 A3011 RMK A01 T02010184  RH  090%=      5-min Rain = 0
KPA1 031048Z 07011KT 20/18 A3011 RMK A01 T02010184  RH  090%=      5-min Rain = 0
KPA1 031049Z 07012KT 20/18 A3011 RMK A01 T02020184  RH  090%=      5-min Rain = 0
KPA1 031050Z 07010KT 20/18 A3011 RMK A01 T02020184  RH  089%=      5-min Rain = 0
KPA1 031051Z 07009KT 20/18 A3011 RMK A01 T02030184  RH  089%=      5-min Rain = 0
KPA1 031052Z 08009KT 20/18 A3011 RMK A01 T02030184  RH  089%=      5-min Rain = 0
KPA1 031053Z 08009KT 20/18 A3011 RMK A01 T02030184  RH  089%=      5-min Rain = 0
KPA1 031054Z 08009KT 20/18 A3011 RMK A01 T02030184  RH  089%=      5-min Rain = 0
KPA1 031055Z 08008KT 20/18 A3011 RMK A01 T02030184  RH  089%=      5-min Rain = 0
KPA1 031056Z 08009KT 20/18 A3011 RMK A01 T02030184  RH  089%=      5-min Rain = 0
KPA1 031057Z 08009KT 20/18 A3011 RMK A01 T02020184  RH  089%=      5-min Rain = 0
KPA1 031058Z 08009KT 20/18 A3011 RMK A01 T02020184  RH  089%=      5-min Rain = 0
KPA1 031059Z 07009KT 20/18 A3011 RMK A01 T02020184  RH  089%=      5-min Rain = 0
KPA1 031100Z 07009KT 20/18 A3011 RMK A01 T02020184  RH  090%=      5-min Rain = 0
KPA1 031101Z 07008KT 20/18 A3011 RMK A01 T02010184  RH  090%=      5-min Rain = 0
KPA1 031102Z 07008KT 20/18 A3011 RMK A01 T02000184  RH  090%=      5-min Rain = 0
KPA1 031103Z 07008KT 20/18 A3011 RMK A01 T01990184  RH  091%=      5-min Rain = 0
KPA1 031104Z 06008KT 20/18 A3011 RMK A01 T01990183  RH  091%=      5-min Rain = 0
KPA1 031105Z 06008KT 20/18 A3011 RMK A01 T01980184  RH  091%=      5-min Rain = 0
KPA1 031106Z 06008KT 20/18 A3011 RMK A01 T01980183  RH  091%=      5-min Rain = 0
KPA1 031107Z 06007KT 20/18 A3011 RMK A01 T01970183  RH  091%=      5-min Rain = 0
KPA1 031108Z 06007KT 20/18 A3011 RMK A01 T01970183  RH  092%=      5-min Rain = 0
KPA1 031109Z 06007KT 20/18 A3011 RMK A01 T01960183  RH  092%=      5-min Rain = 0
KPA1 031110Z 07007KT 20/18 A301 RMK A01 T01960183  RH  092%=      5-min Rain = 0
KPA1 031111Z 07006KT 20/18 A301 RMK A01 T01950183  RH  092%=      5-min Rain = 0
KPA1 031112Z 08005KT 20/18 A301 RMK A01 T01950183  RH  093%=      5-min Rain = 0
KPA1 031113Z 09006KT 20/18 A301 RMK A01 T01950183  RH  093%=      5-min Rain = 0
KPA1 031114Z 10006KT 20/18 A301 RMK A01 T01950183  RH  093%=      5-min Rain = 0
KPA1 031115Z 11006KT 20/18 A301 RMK A01 T01950184  RH  093%=      5-min Rain = 0
KPA1 031116Z 12006KT 20/18 A301 RMK A01 T01950184  RH  093%=      5-min Rain = 0
KPA1 031117Z 12006KT 20/18 A301 RMK A01 T01950184  RH  093%=      5-min Rain = 0
KPA1 031118Z 13005KT 19/18 A301 RMK A01 T01940183  RH  093%=      5-min Rain = 0
KPA1 031119Z 13005KT 19/18 A301 RMK A01 T01940184  RH  094%=      5-min Rain = 0
KPA1 031120Z 12006KT 19/18 A301 RMK A01 T01930184  RH  094%=      5-min Rain = 0
KPA1 031121Z 12006KT 19/18 A301 RMK A01 T01930184  RH  095%=      5-min Rain = 0
KPA1 031122Z 11007KT 19/18 A301 RMK A01 T01930184  RH  095%=      5-min Rain = 0
KPA1 031123Z 11008KT 19/18 A301 RMK A01 T01920184  RH  095%=      5-min Rain = 0
KPA1 031124Z 11007KT 19/19 A301 RMK A01 T01920185  RH  095%=      5-min Rain = 0
KPA1 031125Z 11006KT 19/19 A301 RMK A01 T01920185  RH  095%=      5-min Rain = 0
KPA1 031126Z 11007KT 19/19 A301 RMK A01 T01920185  RH  095%=      5-min Rain = 0
KPA1 031127Z 10006KT 19/19 A301 RMK A01 T01920185  RH  096%=      5-min Rain = 0
KPA1 031128Z 10005KT 19/19 A301 RMK A01 T01920186  RH  096%=      5-min Rain = 0
KPA1 031129Z 10004KT 19/19 A301 RMK A01 T01930186  RH  096%=      5-min Rain = 0
KPA1 031130Z 10003KT 19/19 A301 RMK A01 T01930185  RH  095%=      5-min Rain = 0
KPA1 031131Z 10003KT 19/19 A301 RMK A01 T01930185  RH  095%=      5-min Rain = 0
KPA1 031132Z 08003KT 19/19 A301 RMK A01 T01930186  RH  095%=      5-min Rain = 0
KPA1 031133Z 07003KT 19/19 A301 RMK A01 T01930185  RH  095%=      5-min Rain = 0
KPA1 031134Z 06003KT 19/19 A301 RMK A01 T01930185  RH  095%=      5-min Rain = 0
KPA1 031135Z 04004KT 19/18 A3011 RMK A01 T01920184  RH  095%=      5-min Rain = 0
KPA1 031136Z 05004KT 19/18 A3011 RMK A01 T01910183  RH  095%=      5-min Rain = 0
KPA1 031137Z 05005KT 19/18 A3011 RMK A01 T01890182  RH  096%=      5-min Rain = 0
KPA1 031138Z 05005KT 19/18 A3011 RMK A01 T01890183  RH  096%=      5-min Rain = 0
KPA1 031139Z 05006KT 19/18 A3011 RMK A01 T01870182  RH  096%=      5-min Rain = 0
KPA1 031140Z 05007KT 19/18 A3011 RMK A01 T01870182  RH  097%=      5-min Rain = 0
KPA1 031141Z 04007KT 19/18 A3011 RMK A01 T01860182  RH  097%=      5-min Rain = 0
KPA1 031142Z 04007KT 19/18 A3012 RMK A01 T01860182  RH  098%=      5-min Rain = 0
KPA1 031143Z 05008KT 19/18 A3012 RMK A01 T01860183  RH  098%=      5-min Rain = 0
KPA1 031144Z 05008KT 19/18 A3012 RMK A01 T01860183  RH  098%=      5-min Rain = 0
KPA1 031145Z 05007KT 19/18 A3012 RMK A01 T01860183  RH  098%=      5-min Rain = 0
KPA1 031146Z 06007KT 19/18 A3012 RMK A01 T01870183  RH  098%=      5-min Rain = 0
KPA1 031147Z 06006KT 19/18 A3012 RMK A01 T01870183  RH  097%=      5-min Rain = 0
KPA1 031148Z 07007KT 19/18 A3012 RMK A01 T01870182  RH  097%=      5-min Rain = 0
KPA1 031149Z 07007KT 19/18 A3012 RMK A01 T01870182  RH  097%=      5-min Rain = 0
KPA1 031150Z 08007KT 19/18 A3011 RMK A01 T01870183  RH  097%=      5-min Rain = 0
KPA1 031151Z 08006KT 19/18 A3011 RMK A01 T01870183  RH  097%=      5-min Rain = 0
KPA1 031152Z 08006KT 19/18 A3011 RMK A01 T01880183  RH  097%=      5-min Rain = 0
KPA1 031153Z 08006KT 19/18 A3011 RMK A01 T01890183  RH  097%=      5-min Rain = 0
KPA1 031154Z 08006KT 19/18 A3011 RMK A01 T01890183  RH  096%=      5-min Rain = 0
KPA1 031155Z 08006KT 19/18 A3011 RMK A01 T01890183  RH  096%=      5-min Rain = 0
KPA1 031156Z 07006KT 19/18 A3012 RMK A01 T01890182  RH  096%=      5-min Rain = 0
KPA1 031157Z 07006KT 19/18 A3011 RMK A01 T01890182  RH  096%=      5-min Rain = 0
KPA1 031158Z 07006KT 19/18 A3012 RMK A01 T01890182  RH  096%=      5-min Rain = 0
KPA1 031159Z 07006KT 19/18 A3012 RMK A01 T01880182  RH  096%=      5-min Rain = 0
KPA1 031200Z 07006KT 19/18 A3012 RMK A01 T01880182  RH  096%=      5-min Rain = 0
KPA1 031201Z 06006KT 19/18 A3012 RMK A01 T01880182  RH  096%=      5-min Rain = 0
KPA1 031202Z 06006KT 19/18 A3012 RMK A01 T01870181  RH  096%=      5-min Rain = 0
KPA1 031203Z 06006KT 19/18 A3012 RMK A01 T01880182  RH  096%=      5-min Rain = 0
KPA1 031204Z 06006KT 19/18 A3012 RMK A01 T01880182  RH  096%=      5-min Rain = 0
KPA1 031205Z 06006KT 19/18 A3012 RMK A01 T01880182  RH  096%=      5-min Rain = 0
KPA1 031206Z 06006KT 19/18 A3012 RMK A01 T01880182  RH  096%=      5-min Rain = 0
KPA1 031207Z 06006KT 19/18 A3012 RMK A01 T01880182  RH  096%=      5-min Rain = 0
KPA1 031208Z 06006KT 19/18 A3012 RMK A01 T01890182  RH  096%=      5-min Rain = 0
KPA1 031209Z 06006KT 19/18 A3012 RMK A01 T01890182  RH  096%=      5-min Rain = 0
KPA1 031210Z 06006KT 19/18 A3012 RMK A01 T01890182  RH  096%=      5-min Rain = 0
KPA1 031211Z 06006KT 19/18 A3012 RMK A01 T01890182  RH  096%=      5-min Rain = 0
KPA1 031212Z 06006KT 19/18 A3012 RMK A01 T01890182  RH  096%=      5-min Rain = 0
KPA1 031213Z 06006KT 19/18 A3012 RMK A01 T01890182  RH  096%=      5-min Rain = 0
KPA1 031214Z 05006KT 19/18 A3012 RMK A01 T01900183  RH  096%=      5-min Rain = 0
KPA1 031215Z 05006KT 19/18 A3012 RMK A01 T01890183  RH  096%=      5-min Rain = 0
KPA1 031216Z 05007KT 19/18 A3012 RMK A01 T01900183  RH  096%=      5-min Rain = 0
KPA1 031217Z 04007KT 19/18 A3012 RMK A01 T01900183  RH  096%=      5-min Rain = 0
KPA1 031218Z 04007KT 19/18 A3013 RMK A01 T01900183  RH  096%=      5-min Rain = 0
KPA1 031219Z 04007KT 19/18 A3013 RMK A01 T01910184  RH  096%=      5-min Rain = 0
KPA1 031220Z 04007KT 19/18 A3013 RMK A01 T01910184  RH  096%=      5-min Rain = 0
KPA1 031221Z 04007KT 19/18 A3013 RMK A01 T01920184  RH  095%=      5-min Rain = 0
KPA1 031222Z 05006KT 19/19 A3013 RMK A01 T01930185  RH  095%=      5-min Rain = 0
KPA1 031223Z 06007KT 19/19 A3013 RMK A01 T01940185  RH  094%=      5-min Rain = 0
KPA1 031224Z 06006KT 20/19 A3013 RMK A01 T01950185  RH  094%=      5-min Rain = 0
KPA1 031225Z 06006KT 20/18 A3013 RMK A01 T01950184  RH  093%=      5-min Rain = 0
KPA1 031226Z 07006KT 20/19 A3013 RMK A01 T01960185  RH  093%=      5-min Rain = 0
KPA1 031227Z 07005KT 20/19 A3012 RMK A01 T01970185  RH  093%=      5-min Rain = 0
KPA1 031228Z 08005KT 20/19 A3012 RMK A01 T01970185  RH  093%=      5-min Rain = 0
KPA1 031229Z 08006KT 20/19 A3012 RMK A01 T01980185  RH  092%=      5-min Rain = 0
KPA1 031230Z 08006KT 20/19 A3012 RMK A01 T01980185  RH  092%=      5-min Rain = 0
KPA1 031231Z 09006KT 20/19 A3012 RMK A01 T01990185  RH  092%=      5-min Rain = 0
KPA1 031232Z 09006KT 20/19 A3012 RMK A01 T01990185  RH  092%=      5-min Rain = 0
KPA1 031233Z 09006KT 20/19 A3012 RMK A01 T02000185  RH  091%=      5-min Rain = 0
KPA1 031234Z 09006KT 20/19 A3012 RMK A01 T02010186  RH  091%=      5-min Rain = 0
KPA1 031235Z 09006KT 20/19 A3012 RMK A01 T02020186  RH  091%=      5-min Rain = 0
KPA1 031236Z 09006KT 20/19 A3012 RMK A01 T02020186  RH  091%=      5-min Rain = 0
KPA1 031237Z 09006KT 20/19 A3012 RMK A01 T02020187  RH  091%=      5-min Rain = 0
KPA1 031238Z 09006KT 20/19 A3012 RMK A01 T02030188  RH  091%=      5-min Rain = 0
KPA1 031239Z 09007KT 20/19 A3012 RMK A01 T02040188  RH  091%=      5-min Rain = 0
KPA1 031240Z 08007KT 21/19 A3012 RMK A01 T02050188  RH  090%=      5-min Rain = 0
KPA1 031241Z 08006KT 21/19 A3012 RMK A01 T02050189  RH  090%=      5-min Rain = 0
KPA1 031242Z 08006KT 21/19 A3012 RMK A01 T02060189  RH  090%=      5-min Rain = 0
KPA1 031243Z 08005KT 21/19 A3012 RMK A01 T02060189  RH  090%=      5-min Rain = 0
KPA1 031244Z 08005KT 21/19 A3013 RMK A01 T02060189  RH  090%=      5-min Rain = 0
KPA1 031245Z 08005KT 21/19 A3013 RMK A01 T02070188  RH  089%=      5-min Rain = 0
KPA1 031246Z 08004KT 21/19 A3013 RMK A01 T02070189  RH  089%=      5-min Rain = 0
KPA1 031247Z 08005KT 21/19 A3013 RMK A01 T02070190  RH  090%=      5-min Rain = 0
KPA1 031248Z 09005KT 21/19 A3013 RMK A01 T02080188  RH  089%=      5-min Rain = 0
KPA1 031249Z 09005KT 21/19 A3013 RMK A01 T02090189  RH  088%=      5-min Rain = 0
KPA1 031250Z 09005KT 21/19 A3012 RMK A01 T02090189  RH  089%=      5-min Rain = 0
KPA1 031251Z 10005KT 21/19 A3012 RMK A01 T02090189  RH  088%=      5-min Rain = 0
KPA1 031252Z 09005KT 21/19 A3012 RMK A01 T02100190  RH  088%=      5-min Rain = 0
KPA1 031253Z 10005KT 21/19 A3012 RMK A01 T02100190  RH  088%=      5-min Rain = 0
KPA1 031254Z 09005KT 21/19 A3012 RMK A01 T02100190  RH  088%=      5-min Rain = 0
KPA1 031255Z 10004KT 21/19 A3012 RMK A01 T02110191  RH  088%=      5-min Rain = 0
KPA1 031256Z 09004KT 21/19 A3012 RMK A01 T02120191  RH  088%=      5-min Rain = 0
KPA1 031257Z 09003KT 21/19 A3012 RMK A01 T02120192  RH  088%=      5-min Rain = 0
KPA1 031258Z 09004KT 21/19 A3012 RMK A01 T02130192  RH  088%=      5-min Rain = 0
KPA1 031259Z 09004KT 21/19 A3013 RMK A01 T02130192  RH  087%=      5-min Rain = 0
KPA1 031300Z 08003KT 21/19 A3013 RMK A01 T02140192  RH  087%=      5-min Rain = 0
KPA1 031301Z 09004KT 22/19 A3013 RMK A01 T02150193  RH  087%=      5-min Rain = 0
KPA1 031302Z 09005KT 22/19 A3013 RMK A01 T02150192  RH  087%=      5-min Rain = 0
KPA1 031303Z 08005KT 22/19 A3013 RMK A01 T02160193  RH  087%=      5-min Rain = 0
KPA1 031304Z 08004KT 22/19 A3013 RMK A01 T02160192  RH  086%=      5-min Rain = 0
KPA1 031305Z 09005KT 22/19 A3013 RMK A01 T02160192  RH  086%=      5-min Rain = 0
KPA1 031306Z 09004KT 22/19 A3013 RMK A01 T02160193  RH  087%=      5-min Rain = 0
KPA1 031307Z 09005KT 22/19 A3013 RMK A01 T02160193  RH  087%=      5-min Rain = 0
KPA1 031308Z 10004KT 22/19 A3013 RMK A01 T02170193  RH  086%=      5-min Rain = 0
KPA1 031309Z 10004KT 22/19 A3013 RMK A01 T02170194  RH  087%=      5-min Rain = 0
KPA1 031310Z 10005KT 22/20 A3013 RMK A01 T02180195  RH  087%=      5-min Rain = 0
KPA1 031311Z 10005KT 22/19 A3013 RMK A01 T02180193  RH  086%=      5-min Rain = 0
KPA1 031312Z 10005KT 22/20 A3013 RMK A01 T02190195  RH  086%=      5-min Rain = 0
KPA1 031313Z 10005KT 22/20 A3013 RMK A01 T02190195  RH  086%=      5-min Rain = 0
KPA1 031314Z 10005KT 22/20 A3013 RMK A01 T02200195  RH  086%=      5-min Rain = 0
KPA1 031315Z 10005KT 22/20 A3013 RMK A01 T02200196  RH  086%=      5-min Rain = 0
KPA1 031316Z 10005KT 22/20 A3013 RMK A01 T02200196  RH  086%=      5-min Rain = 0
KPA1 031317Z 09006KT 22/20 A3013 RMK A01 T02210197  RH  086%=      5-min Rain = 0
KPA1 031318Z 09005KT 22/20 A3013 RMK A01 T02210196  RH  086%=      5-min Rain = 0
KPA1 031319Z 10006KT 22/20 A3013 RMK A01 T02220198  RH  086%=      5-min Rain = 0
KPA1 031320Z 09005KT 22/20 A3013 RMK A01 T02220198  RH  086%=      5-min Rain = 0
KPA1 031321Z 10006KT 22/20 A3013 RMK A01 T02230197  RH  085%=      5-min Rain = 0
KPA1 031322Z 09006KT 22/20 A3013 RMK A01 T02230198  RH  085%=      5-min Rain = 0
KPA1 031323Z 10006KT 22/20 A3013 RMK A01 T02230197  RH  085%=      5-min Rain = 0
KPA1 031324Z 10006KT 22/20 A3013 RMK A01 T02240198  RH  085%=      5-min Rain = 0
KPA1 031325Z 10004KT 22/20 A3013 RMK A01 T02240198  RH  085%=      5-min Rain = 0
KPA1 031326Z 11005KT 23/20 A3013 RMK A01 T02260201  RH  086%=      5-min Rain = 0
KPA1 031327Z 11005KT 23/20 A3013 RMK A01 T02270199  RH  084%=      5-min Rain = 0
KPA1 031328Z 10005KT 23/20 A3013 RMK A01 T02280200  RH  084%=      5-min Rain = 0
KPA1 031329Z 11004KT 23/20 A3013 RMK A01 T02290201  RH  084%=      5-min Rain = 0
KPA1 031330Z 11005KT 23/20 A3013 RMK A01 T02290199  RH  083%=      5-min Rain = 0
KPA1 031331Z 11005KT 23/20 A3013 RMK A01 T02290200  RH  084%=      5-min Rain = 0
KPA1 031332Z 13004KT 23/20 A3013 RMK A01 T02300202  RH  084%=      5-min Rain = 0
KPA1 031333Z 13004KT 23/20 A3013 RMK A01 T02310202  RH  084%=      5-min Rain = 0
KPA1 031334Z 13004KT 23/20 A3013 RMK A01 T02320203  RH  084%=      5-min Rain = 0
KPA1 031335Z 14005KT 23/20 A3013 RMK A01 T02340203  RH  083%=      5-min Rain = 0
KPA1 031336Z 14006KT 23/20 A3013 RMK A01 T02340201  RH  082%=      5-min Rain = 0
KPA1 031337Z 13006KT 23/20 A3013 RMK A01 T02340201  RH  082%=      5-min Rain = 0
KPA1 031338Z 14005KT 23/20 A3013 RMK A01 T02330200  RH  082%=      5-min Rain = 0
KPA1 031339Z 14005KT 23/20 A3013 RMK A01 T02320203  RH  083%=      5-min Rain = 0
KPA1 031340Z 13006KT 23/20 A3013 RMK A01 T02330202  RH  083%=      5-min Rain = 0
KPA1 031341Z 13006KT 23/20 A3013 RMK A01 T02330202  RH  082%=      5-min Rain = 0
KPA1 031342Z 13005KT 23/20 A3013 RMK A01 T02340203  RH  083%=      5-min Rain = 0
KPA1 031343Z 12006KT 24/20 A3013 RMK A01 T02350204  RH  083%=      5-min Rain = 0
KPA1 031344Z 13007KT 24/20 A3013 RMK A01 T02350203  RH  082%=      5-min Rain = 0
KPA1 031345Z 13006KT 24/20 A3013 RMK A01 T02350203  RH  082%=      5-min Rain = 0
KPA1 031346Z 12006KT 24/20 A3014 RMK A01 T02350203  RH  083%=      5-min Rain = 0
KPA1 031347Z 12006KT 24/20 A3014 RMK A01 T02350202  RH  082%=      5-min Rain = 0
KPA1 031348Z 13006KT 24/20 A3014 RMK A01 T02360204  RH  083%=      5-min Rain = 0
KPA1 031349Z 13006KT 24/20 A3014 RMK A01 T02360204  RH  082%=      5-min Rain = 0
KPA1 031350Z 12005KT 24/21 A3014 RMK A01 T02370205  RH  083%=      5-min Rain = 0
KPA1 031351Z 12006KT 24/21 A3014 RMK A01 T02390206  RH  082%=      5-min Rain = 0
KPA1 031352Z 12006KT 24/21 A3014 RMK A01 T02390205  RH  081%=      5-min Rain = 0
KPA1 031353Z 13006KT 24/21 A3014 RMK A01 T02400208  RH  082%=      5-min Rain = 0
KPA1 031354Z 13006KT 24/21 A3014 RMK A01 T02420208  RH  082%=      5-min Rain = 0
KPA1 031355Z 14006KT 24/21 A3014 RMK A01 T02430207  RH  080%=      5-min Rain = 0
KPA1 031356Z 13007KT 24/21 A3014 RMK A01 T02430207  RH  080%=      5-min Rain = 0
KPA1 031357Z 13008KT 24/21 A3014 RMK A01 T02440207  RH  080%=      5-min Rain = 0
KPA1 031358Z 14007KT 24/21 A3014 RMK A01 T02440206  RH  080%=      5-min Rain = 0
KPA1 031359Z 13007KT 24/21 A3014 RMK A01 T02440207  RH  080%=      5-min Rain = 0
KPA1 031400Z 14007KT 24/21 A3014 RMK A01 T02440207  RH  080%=      5-min Rain = 0
KPA1 031401Z 14006KT 24/21 A3014 RMK A01 T02440207  RH  080%=      5-min Rain = 0
KPA1 031402Z 13007KT 25/21 A3014 RMK A01 T02450208  RH  080%=      5-min Rain = 0
KPA1 031403Z 13007KT 25/21 A3014 RMK A01 T02450207  RH  079%=      5-min Rain = 0
KPA1 031404Z 14007KT 25/21 A3014 RMK A01 T02460210  RH  080%=      5-min Rain = 0
KPA1 031405Z 14008KT 25/21 A3014 RMK A01 T02470208  RH  079%=      5-min Rain = 0
KPA1 031406Z 15008KT 25/21 A3014 RMK A01 T02470208  RH  079%=      5-min Rain = 0
KPA1 031407Z 14008KT 25/21 A3014 RMK A01 T02470209  RH  079%=      5-min Rain = 0
KPA1 031408Z 13008KT 25/21 A3014 RMK A01 T02480207  RH  078%=      5-min Rain = 0
KPA1 031409Z 13008KT 25/21 A3015 RMK A01 T02480209  RH  079%=      5-min Rain = 0
KPA1 031410Z 14007KT 25/21 A3015 RMK A01 T02480209  RH  079%=      5-min Rain = 0
KPA1 031411Z 14008KT 25/21 A3015 RMK A01 T02490209  RH  078%=      5-min Rain = 0
KPA1 031412Z 13007KT 25/21 A3015 RMK A01 T02490208  RH  078%=      5-min Rain = 0
KPA1 031413Z 13009KT 25/21 A3015 RMK A01 T02490208  RH  078%=      5-min Rain = 0
KPA1 031414Z 13007KT 25/21 A3015 RMK A01 T02490208  RH  078%=      5-min Rain = 0
KPA1 031415Z 12008KT 25/21 A3015 RMK A01 T02490209  RH  079%=      5-min Rain = 0
KPA1 031416Z 14007KT 25/21 A3015 RMK A01 T02500210  RH  079%=      5-min Rain = 0
KPA1 031417Z 13008KT 25/21 A3015 RMK A01 T02510209  RH  078%=      5-min Rain = 0
KPA1 031418Z 14007KT 25/21 A3015 RMK A01 T02510209  RH  078%=      5-min Rain = 0
KPA1 031419Z 13007KT 25/21 A3015 RMK A01 T02510211  RH  079%=      5-min Rain = 0
KPA1 031420Z 12007KT 25/21 A3015 RMK A01 T02520211  RH  078%=      5-min Rain = 0
KPA1 031421Z 13008KT 25/21 A3015 RMK A01 T02540211  RH  077%=      5-min Rain = 0
KPA1 031422Z 14008KT 25/21 A3015 RMK A01 T02540210  RH  077%=      5-min Rain = 0
KPA1 031423Z 13008KT 25/21 A3015 RMK A01 T02530210  RH  077%=      5-min Rain = 0
KPA1 031424Z 14006KT 25/21 A3015 RMK A01 T02530211  RH  077%=      5-min Rain = 0
KPA1 031425Z 16007KT 25/21 A3015 RMK A01 T02540211  RH  077%=      5-min Rain = 0
KPA1 031426Z 16008KT 26/21 A3015 RMK A01 T02550210  RH  076%=      5-min Rain = 0
KPA1 031427Z 14007KT 26/21 A3015 RMK A01 T02560213  RH  077%=      5-min Rain = 0
KPA1 031428Z 13008KT 26/21 A3015 RMK A01 T02570212  RH  076%=      5-min Rain = 0
KPA1 031429Z 13008KT 26/21 A3015 RMK A01 T02580210  RH  075%=      5-min Rain = 0
KPA1 031430Z 14008KT 26/21 A3015 RMK A01 T02580211  RH  075%=      5-min Rain = 0
KPA1 031431Z 14008KT 26/21 A3015 RMK A01 T02580211  RH  076%=      5-min Rain = 0
KPA1 031432Z 15008KT 26/21 A3015 RMK A01 T02570209  RH  075%=      5-min Rain = 0
KPA1 031433Z 14008KT 26/21 A3015 RMK A01 T02580210  RH  074%=      5-min Rain = 0
KPA1 031434Z 14007KT 26/21 A3015 RMK A01 T02590211  RH  075%=      5-min Rain = 0
KPA1 031435Z 14007KT 26/21 A3015 RMK A01 T02590210  RH  074%=      5-min Rain = 0
KPA1 031436Z 13007KT 26/21 A3015 RMK A01 T02590211  RH  075%=      5-min Rain = 0
KPA1 031437Z 14008KT 26/21 A3015 RMK A01 T02590209  RH  074%=      5-min Rain = 0
KPA1 031438Z 14007KT 26/21 A3015 RMK A01 T02600211  RH  074%=      5-min Rain = 0
KPA1 031439Z 15008KT 26/21 A3015 RMK A01 T02600209  RH  074%=      5-min Rain = 0
KPA1 031440Z 14007KT 26/21 A3015 RMK A01 T02610212  RH  074%=      5-min Rain = 0
KPA1 031441Z 13007KT 26/21 A3015 RMK A01 T02610210  RH  073%=      5-min Rain = 0
KPA1 031442Z 16006KT 26/21 A3015 RMK A01 T02610211  RH  074%=      5-min Rain = 0
KPA1 031443Z 15007KT 26/21 A3015 RMK A01 T02610211  RH  074%=      5-min Rain = 0
KPA1 031444Z 14008KT 26/21 A3015 RMK A01 T02610212  RH  074%=      5-min Rain = 0
KPA1 031445Z 14008KT 26/21 A3015 RMK A01 T02630209  RH  072%=      5-min Rain = 0
KPA1 031446Z 15008KT 26/21 A3015 RMK A01 T02630210  RH  073%=      5-min Rain = 0
KPA1 031447Z 14007KT 26/21 A3015 RMK A01 T02630210  RH  073%=      5-min Rain = 0
KPA1 031448Z 14007KT 26/21 A3015 RMK A01 T02630210  RH  073%=      5-min Rain = 0
KPA1 031449Z 15008KT 26/21 A3015 RMK A01 T02630208  RH  072%=      5-min Rain = 0
KPA1 031450Z 16006KT 26/21 A3015 RMK A01 T02630207  RH  071%=      5-min Rain = 0
KPA1 031451Z 15008KT 27/21 A3014 RMK A01 T02660209  RH  071%=      5-min Rain = 0
KPA1 031452Z 15007KT 27/21 A3014 RMK A01 T02660205  RH  069%=      5-min Rain = 0
KPA1 031453Z 14006KT 27/21 A3014 RMK A01 T02660208  RH  070%=      5-min Rain = 0
KPA1 031454Z 14007KT 27/21 A3014 RMK A01 T02660206  RH  070%=      5-min Rain = 0
KPA1 031455Z 15006KT 27/20 A3014 RMK A01 T02660200  RH  067%=      5-min Rain = 0
KPA1 031456Z 14006KT 27/20 A3014 RMK A01 T02660203  RH  068%=      5-min Rain = 0
KPA1 031457Z 15006KT 27/20 A3014 RMK A01 T02670204  RH  069%=      5-min Rain = 0
KPA1 031458Z 16007KT 27/20 A3014 RMK A01 T02690201  RH  066%=      5-min Rain = 0
KPA1 031459Z 16007KT 27/20 A3014 RMK A01 T02700204  RH  067%=      5-min Rain = 0
KPA1 031500Z 15006KT 27/20 A3014 RMK A01 T02710202  RH  066%=      5-min Rain = 0
KPA1 031501Z 15006KT 27/20 A3014 RMK A01 T02710202  RH  066%=      5-min Rain = 0
KPA1 031502Z 15006KT 27/20 A3014 RMK A01 T02710204  RH  067%=      5-min Rain = 0
KPA1 031503Z 15005KT 27/20 A3014 RMK A01 T02710204  RH  067%=      5-min Rain = 0
KPA1 031504Z 16006KT 27/20 A3014 RMK A01 T02720201  RH  065%=      5-min Rain = 0
KPA1 031505Z 16007KT 27/20 A3014 RMK A01 T02720200  RH  065%=      5-min Rain = 0
KPA1 031506Z 17007KT 27/20 A3014 RMK A01 T02730198  RH  064%=      5-min Rain = 0
KPA1 031507Z 18006KT 27/19 A3014 RMK A01 T02730189  RH  060%=      5-min Rain = 0
KPA1 031508Z 19007KT 27/19 A3014 RMK A01 T02730193  RH  062%=      5-min Rain = 0
KPA1 031509Z 18006KT 27/20 A3014 RMK A01 T02730200  RH  064%=      5-min Rain = 0
KPA1 031510Z 17004KT 27/20 A3014 RMK A01 T02740199  RH  063%=      5-min Rain = 0
KPA1 031511Z 19008KT 28/19 A3014 RMK A01 T02750194  RH  061%=      5-min Rain = 0
KPA1 031512Z 18008KT 28/19 A3014 RMK A01 T02760192  RH  060%=      5-min Rain = 0
KPA1 031513Z 17006KT 28/19 A3014 RMK A01 T02760187  RH  058%=      5-min Rain = 0
KPA1 031514Z 19007KT 28/19 A3014 RMK A01 T02770186  RH  058%=      5-min Rain = 0
KPA1 031515Z 19006KT 28/18 A3014 RMK A01 T02750182  RH  057%=      5-min Rain = 0
KPA1 031516Z 19005KT 28/19 A3014 RMK A01 T02750187  RH  058%=      5-min Rain = 0
KPA1 031517Z 18005KT 28/19 A3014 RMK A01 T02770190  RH  059%=      5-min Rain = 0
KPA1 031518Z 18007KT 28/19 A3014 RMK A01 T02770192  RH  060%=      5-min Rain = 0
KPA1 031519Z 18007KT 28/18 A3014 RMK A01 T02770184  RH  057%=      5-min Rain = 0
KPA1 031520Z 19005KT 28/18 A3014 RMK A01 T02770182  RH  056%=      5-min Rain = 0
KPA1 031521Z 19005KT 28/18 A3014 RMK A01 T02750182  RH  057%=      5-min Rain = 0
KPA1 031522Z 19003KT 27/18 A3014 RMK A01 T02740182  RH  057%=      5-min Rain = 0
KPA1 031523Z 17004KT 28/18 A3014 RMK A01 T02750183  RH  057%=      5-min Rain = 0
KPA1 031524Z 16006KT 28/18 A3014 RMK A01 T02760181  RH  056%=      5-min Rain = 0
KPA1 031525Z 17006KT 28/19 A3014 RMK A01 T02770188  RH  058%=      5-min Rain = 0
KPA1 031526Z 19005KT 28/19 A3014 RMK A01 T02780186  RH  057%=      5-min Rain = 0
KPA1 031527Z 19004KT 28/18 A3014 RMK A01 T02780183  RH  056%=      5-min Rain = 0
KPA1 031528Z 16006KT 28/19 A3014 RMK A01 T02790187  RH  057%=      5-min Rain = 0
KPA1 031529Z 15007KT 28/19 A3014 RMK A01 T02810188  RH  057%=      5-min Rain = 0
KPA1 031530Z 15006KT 28/19 A3014 RMK A01 T02810188  RH  057%=      5-min Rain = 0
KPA1 031531Z 15006KT 28/19 A3014 RMK A01 T02810191  RH  058%=      5-min Rain = 0
KPA1 031532Z 15004KT 28/19 A3014 RMK A01 T02810191  RH  058%=      5-min Rain = 0
KPA1 031533Z 15005KT 28/19 A3014 RMK A01 T02810190  RH  058%=      5-min Rain = 0
KPA1 031534Z 16004KT 28/19 A3014 RMK A01 T02810189  RH  057%=      5-min Rain = 0
KPA1 031535Z 17004KT 28/19 A3014 RMK A01 T02810190  RH  058%=      5-min Rain = 0
KPA1 031536Z 18006KT 28/19 A3014 RMK A01 T02830194  RH  058%=      5-min Rain = 0
KPA1 031537Z 16007KT 29/19 A3014 RMK A01 T02860187  RH  055%=      5-min Rain = 0
KPA1 031538Z 17004KT 29/18 A3014 RMK A01 T02860183  RH  054%=      5-min Rain = 0
KPA1 031539Z 18005KT 29/18 A3014 RMK A01 T02850184  RH  055%=      5-min Rain = 0
KPA1 031540Z 19007KT 29/18 A3014 RMK A01 T02850183  RH  054%=      5-min Rain = 0
KPA1 031541Z 20005KT 29/18 A3014 RMK A01 T02850175  RH  051%=      5-min Rain = 0
KPA1 031542Z 20005KT 28/18 A3014 RMK A01 T02840179  RH  053%=      5-min Rain = 0
KPA1 031543Z 18006KT 28/19 A3014 RMK A01 T02840185  RH  055%=      5-min Rain = 0
KPA1 031544Z 18008KT 29/19 A3014 RMK A01 T02860186  RH  055%=      5-min Rain = 0
KPA1 031545Z 19008KT 29/18 A3014 RMK A01 T02870182  RH  053%=      5-min Rain = 0
KPA1 031546Z 19006KT 29/18 A3014 RMK A01 T02860178  RH  052%=      5-min Rain = 0
KPA1 031547Z 19004KT 29/18 A3014 RMK A01 T02850176  RH  052%=      5-min Rain = 0
KPA1 031548Z 18004KT 29/18 A3014 RMK A01 T02850177  RH  052%=      5-min Rain = 0
KPA1 031549Z 20006KT 29/18 A3014 RMK A01 T02850181  RH  053%=      5-min Rain = 0
KPA1 031550Z 18004KT 29/18 A3014 RMK A01 T02860182  RH  054%=      5-min Rain = 0
KPA1 031551Z 19008KT 29/19 A3014 RMK A01 T02860186  RH  055%=      5-min Rain = 0
KPA1 031552Z 17008KT 29/18 A3014 RMK A01 T02880181  RH  052%=      5-min Rain = 0
KPA1 031553Z 16007KT 29/18 A3014 RMK A01 T02880181  RH  052%=      5-min Rain = 0
KPA1 031554Z 19008KT 29/18 A3014 RMK A01 T02880179  RH  052%=      5-min Rain = 0
KPA1 031555Z 20008KT 29/18 A3015 RMK A01 T02870179  RH  052%=      5-min Rain = 0
KPA1 031556Z 19005KT 29/18 A3015 RMK A01 T02860180  RH  052%=      5-min Rain = 0
KPA1 031557Z 19005KT 29/18 A3015 RMK A01 T02870181  RH  053%=      5-min Rain = 0
KPA1 031558Z 19008KT 29/18 A3015 RMK A01 T02870181  RH  052%=      5-min Rain = 0
KPA1 031559Z 20006KT 29/18 A3015 RMK A01 T02870184  RH  054%=      5-min Rain = 0
KPA1 031600Z 17005KT 29/18 A3015 RMK A01 T02870182  RH  053%=      5-min Rain = 0
KPA1 031601Z 14004KT 29/19 A3015 RMK A01 T02860186  RH  055%=      5-min Rain = 0
KPA1 031602Z 15004KT 29/19 A3015 RMK A01 T02880188  RH  055%=      5-min Rain = 0
KPA1 031603Z 16006KT 29/19 A3015 RMK A01 T02910192  RH  055%=      5-min Rain = 0
KPA1 031604Z 16006KT 29/19 A3015 RMK A01 T02940189  RH  053%=      5-min Rain = 0
KPA1 031605Z 18005KT 29/18 A3015 RMK A01 T02940183  RH  051%=      5-min Rain = 0
KPA1 031606Z 18006KT 29/18 A3015 RMK A01 T02930183  RH  052%=      5-min Rain = 0
KPA1 031607Z 18008KT 29/18 A3015 RMK A01 T02930183  RH  052%=      5-min Rain = 0
KPA1 031608Z 17006KT 29/18 A3015 RMK A01 T02930177  RH  050%=      5-min Rain = 0
KPA1 031609Z 18007KT 29/18 A3015 RMK A01 T02920179  RH  051%=      5-min Rain = 0
KPA1 031610Z 20006KT 29/18 A3015 RMK A01 T02920177  RH  050%=      5-min Rain = 0
KPA1 031611Z 20007KT 29/18 A3015 RMK A01 T02920179  RH  050%=      5-min Rain = 0
KPA1 031612Z 21006KT 29/18 A3015 RMK A01 T02920177  RH  050%=      5-min Rain = 0
KPA1 031613Z 18005KT 29/18 A3015 RMK A01 T02920182  RH  051%=      5-min Rain = 0
KPA1 031614Z 18006KT 29/18 A3015 RMK A01 T02930183  RH  052%=      5-min Rain = 0
KPA1 031615Z 17007KT 30/18 A3015 RMK A01 T02960184  RH  051%=      5-min Rain = 0
KPA1 031616Z 19007KT 30/18 A3015 RMK A01 T02960182  RH  050%=      5-min Rain = 0
KPA1 031617Z 19005KT 29/18 A3015 RMK A01 T02940178  RH  050%=      5-min Rain = 0
KPA1 031618Z 19007KT 29/18 A3015 RMK A01 T02920181  RH  051%=      5-min Rain = 0
KPA1 031619Z 19006KT 29/18 A3015 RMK A01 T02930180  RH  051%=      5-min Rain = 0
KPA1 031620Z 20007KT 30/18 A3015 RMK A01 T02950180  RH  050%=      5-min Rain = 0
KPA1 031621Z 20007KT 30/17 A3015 RMK A01 T02950173  RH  048%=      5-min Rain = 0
KPA1 031622Z 21007KT 29/18 A3015 RMK A01 T02920175  RH  049%=      5-min Rain = 0
KPA1 031623Z 20006KT 29/18 A3015 RMK A01 T02910182  RH  052%=      5-min Rain = 0
KPA1 031624Z 19007KT 29/18 A3015 RMK A01 T02920180  RH  051%=      5-min Rain = 0
KPA1 031625Z 16007KT 29/18 A3015 RMK A01 T02940180  RH  050%=      5-min Rain = 0
KPA1 031626Z 16007KT 30/18 A3015 RMK A01 T02950178  RH  049%=      5-min Rain = 0
KPA1 031627Z 15004KT 30/17 A3015 RMK A01 T02950171  RH  047%=      5-min Rain = 0
KPA1 031628Z 19006KT 30/18 A3015 RMK A01 T02950178  RH  049%=      5-min Rain = 0
KPA1 031629Z 19007KT 30/18 A3015 RMK A01 T02960178  RH  049%=      5-min Rain = 0
KPA1 031630Z 20006KT 30/18 A3015 RMK A01 T02970177  RH  048%=      5-min Rain = 0
KPA1 031631Z 20006KT 30/18 A3015 RMK A01 T02960175  RH  048%=      5-min Rain = 0
KPA1 031632Z 20006KT 30/18 A3015 RMK A01 T02950175  RH  049%=      5-min Rain = 0
KPA1 031633Z 19009KT 29/18 A3015 RMK A01 T02940181  RH  050%=      5-min Rain = 0
KPA1 031634Z 18006KT 29/18 A3015 RMK A01 T02940179  RH  050%=      5-min Rain = 0
KPA1 031635Z 19006KT 30/18 A3015 RMK A01 T02950178  RH  049%=      5-min Rain = 0
KPA1 031636Z 21005KT 30/18 A3015 RMK A01 T02950179  RH  050%=      5-min Rain = 0
KPA1 031637Z 20005KT 29/18 A3015 RMK A01 T02940180  RH  050%=      5-min Rain = 0
KPA1 031638Z 19006KT 29/18 A3015 RMK A01 T02940183  RH  051%=      5-min Rain = 0
KPA1 031639Z 17005KT 30/19 A3015 RMK A01 T02970190  RH  053%=      5-min Rain = 0
KPA1 031640Z 17007KT 30/19 A3015 RMK A01 T03010190  RH  051%=      5-min Rain = 0
KPA1 031641Z 15007KT 30/19 A3015 RMK A01 T03030186  RH  049%=      5-min Rain = 0
KPA1 031642Z 15007KT 30/18 A3015 RMK A01 T03020182  RH  049%=      5-min Rain = 0
KPA1 031643Z 15007KT 30/18 A3015 RMK A01 T03000183  RH  049%=      5-min Rain = 0
KPA1 031644Z 13006KT 30/18 A3015 RMK A01 T03000184  RH  050%=      5-min Rain = 0
KPA1 031645Z 12004KT 30/18 A3015 RMK A01 T03000178  RH  048%=      5-min Rain = 0
KPA1 031646Z 14004KT 30/18 A3015 RMK A01 T03000180  RH  049%=      5-min Rain = 0
KPA1 031647Z 17006KT 30/19 A3015 RMK A01 T03010185  RH  050%=      5-min Rain = 0
KPA1 031648Z 15006KT 30/18 A3015 RMK A01 T03020180  RH  048%=      5-min Rain = 0
KPA1 031649Z 13005KT 30/18 A3015 RMK A01 T03010181  RH  048%=      5-min Rain = 0
KPA1 031650Z 14004KT 30/18 A3015 RMK A01 T03000178  RH  048%=      5-min Rain = 0
KPA1 031651Z 18004KT 30/19 A3015 RMK A01 T03000189  RH  051%=      5-min Rain = 0
KPA1 031652Z 16007KT 30/19 A3015 RMK A01 T03030191  RH  051%=      5-min Rain = 0
KPA1 031653Z 17006KT 30/19 A3015 RMK A01 T03040185  RH  049%=      5-min Rain = 0
KPA1 031654Z 19007KT 30/19 A3015 RMK A01 T03040185  RH  049%=      5-min Rain = 0
KPA1 031655Z 20007KT 30/19 A3015 RMK A01 T03030186  RH  050%=      5-min Rain = 0
KPA1 031656Z 19006KT 30/19 A3015 RMK A01 T03020185  RH  049%=      5-min Rain = 0
KPA1 031657Z 18007KT 30/18 A3015 RMK A01 T03010183  RH  049%=      5-min Rain = 0
KPA1 031658Z 18007KT 30/19 A3015 RMK A01 T03010185  RH  050%=      5-min Rain = 0
KPA1 031659Z 20005KT 30/19 A3015 RMK A01 T03010186  RH  050%=      5-min Rain = 0
KPA1 031700Z 21006KT 30/18 A3015 RMK A01 T03020184  RH  049%=      5-min Rain = 0
KPA1 031701Z 18005KT 30/18 A3015 RMK A01 T03010180  RH  048%=      5-min Rain = 0
KPA1 031702Z 15006KT 30/18 A3015 RMK A01 T03000183  RH  049%=      5-min Rain = 0
KPA1 031703Z 15005KT 30/18 A3015 RMK A01 T03010183  RH  049%=      5-min Rain = 0
KPA1 031704Z 16008KT 30/19 A3015 RMK A01 T03040186  RH  049%=      5-min Rain = 0
KPA1 031705Z 15007KT 31/18 A3015 RMK A01 T03060182  RH  048%=      5-min Rain = 0
KPA1 031706Z 16006G11KT 31/18 A3015 RMK A01 T03060183  RH  048%=      5-min Rain = 0
KPA1 031707Z 18008KT 31/19 A3015 RMK A01 T03060186  RH  049%=      5-min Rain = 0
KPA1 031708Z 18009KT 31/18 A3015 RMK A01 T03070183  RH  048%=      5-min Rain = 0
KPA1 031709Z 19006KT 31/18 A3015 RMK A01 T03060175  RH  046%=      5-min Rain = 0
KPA1 031710Z 18006KT 31/18 A3015 RMK A01 T03050184  RH  049%=      5-min Rain = 0
KPA1 031711Z 16005KT 31/18 A3015 RMK A01 T03060180  RH  047%=      5-min Rain = 0
KPA1 031712Z 19004KT 31/18 A3015 RMK A01 T03060181  RH  047%=      5-min Rain = 0
KPA1 031713Z 18007KT 31/19 A3015 RMK A01 T03070189  RH  049%=      5-min Rain = 0
KPA1 031714Z 16008KT 31/18 A3015 RMK A01 T03070184  RH  048%=      5-min Rain = 0
KPA1 031715Z 16007KT 31/18 A3015 RMK A01 T03050182  RH  048%=      5-min Rain = 0
KPA1 031716Z 14008KT 31/19 A3015 RMK A01 T03050186  RH  049%=      5-min Rain = 0
KPA1 031717Z 15008KT 31/18 A3015 RMK A01 T03060181  RH  047%=      5-min Rain = 0
KPA1 031718Z 13007KT 31/19 A3015 RMK A01 T03060188  RH  049%=      5-min Rain = 0
KPA1 031719Z 15007KT 31/18 A3015 RMK A01 T03080183  RH  047%=      5-min Rain = 0
KPA1 031720Z 15006KT 31/18 A3015 RMK A01 T03080182  RH  047%=      5-min Rain = 0
KPA1 031721Z 16005KT 31/18 A3014 RMK A01 T03070182  RH  047%=      5-min Rain = 0
KPA1 031722Z 13006KT 31/18 A3014 RMK A01 T03070183  RH  048%=      5-min Rain = 0
KPA1 031723Z 14007KT 31/18 A3014 RMK A01 T03070181  RH  047%=      5-min Rain = 0
KPA1 031724Z 15007KT 31/19 A3014 RMK A01 T03090185  RH  047%=      5-min Rain = 0
KPA1 031725Z 17008KT 31/19 A3014 RMK A01 T03090185  RH  048%=      5-min Rain = 0
KPA1 031726Z 18008KT 31/19 A3014 RMK A01 T03070185  RH  048%=      5-min Rain = 0
KPA1 031727Z 19008KT 31/18 A3014 RMK A01 T03060184  RH  048%=      5-min Rain = 0
KPA1 031728Z 18007KT 31/18 A3014 RMK A01 T03050183  RH  048%=      5-min Rain = 0
KPA1 031729Z 19010KT 31/18 A3014 RMK A01 T03060181  RH  047%=      5-min Rain = 0
KPA1 031730Z 19009KT 31/18 A3014 RMK A01 T03070181  RH  047%=      5-min Rain = 0
KPA1 031731Z 19008KT 31/18 A3014 RMK A01 T03070181  RH  047%=      5-min Rain = 0
KPA1 031732Z 19005KT 31/18 A3014 RMK A01 T03060178  RH  046%=      5-min Rain = 0
KPA1 031733Z 19009KT 31/18 A3014 RMK A01 T03060183  RH  048%=      5-min Rain = 0
KPA1 031734Z 18008KT 31/18 A3014 RMK A01 T03070183  RH  047%=      5-min Rain = 0
KPA1 031735Z 18008KT 31/18 A3014 RMK A01 T03080181  RH  047%=      5-min Rain = 0
KPA1 031736Z 17008KT 31/18 A3014 RMK A01 T03070182  RH  047%=      5-min Rain = 0
KPA1 031737Z 19008KT 31/18 A3014 RMK A01 T03070182  RH  047%=      5-min Rain = 0
KPA1 031738Z 19007KT 31/18 A3014 RMK A01 T03070184  RH  048%=      5-min Rain = 0
KPA1 031739Z 17009KT 31/18 A3014 RMK A01 T03070182  RH  047%=      5-min Rain = 0
KPA1 031740Z 14007KT 31/18 A3014 RMK A01 T03080182  RH  047%=      5-min Rain = 0
KPA1 031741Z 16006KT 31/18 A3014 RMK A01 T03080183  RH  047%=      5-min Rain = 0
KPA1 031742Z 17010KT 31/18 A3014 RMK A01 T03100183  RH  047%=      5-min Rain = 0
KPA1 031743Z 16009KT 31/18 A3014 RMK A01 T03100182  RH  046%=      5-min Rain = 0
KPA1 031744Z 17009KT 31/18 A3014 RMK A01 T03090183  RH  047%=      5-min Rain = 0
KPA1 031745Z 19010KT 31/18 A3014 RMK A01 T03100184  RH  047%=      5-min Rain = 0
KPA1 031746Z 19007KT 31/18 A3014 RMK A01 T03100181  RH  046%=      5-min Rain = 0
KPA1 031747Z 20008KT 31/18 A3014 RMK A01 T03090181  RH  046%=      5-min Rain = 0
KPA1 031748Z 20008KT 31/18 A3014 RMK A01 T03090182  RH  047%=      5-min Rain = 0
KPA1 031749Z 18010KT 31/18 A3014 RMK A01 T03100181  RH  046%=      5-min Rain = 0
KPA1 031750Z 18008KT 31/17 A3014 RMK A01 T03120174  RH  044%=      5-min Rain = 0
KPA1 031751Z 18008KT 31/18 A3014 RMK A01 T03130175  RH  044%=      5-min Rain = 0
KPA1 031752Z 18009KT 31/18 A3014 RMK A01 T03140175  RH  043%=      5-min Rain = 0
KPA1 031753Z 17009KT 31/18 A3014 RMK A01 T03140179  RH  045%=      5-min Rain = 0
KPA1 031754Z 17008KT 31/18 A3014 RMK A01 T03140183  RH  046%=      5-min Rain = 0
KPA1 031755Z 17006KT 31/18 A3014 RMK A01 T03130181  RH  046%=      5-min Rain = 0
KPA1 031756Z 17007KT 31/18 A3014 RMK A01 T03120180  RH  045%=      5-min Rain = 0
KPA1 031757Z 16007KT 31/18 A3014 RMK A01 T03110184  RH  047%=      5-min Rain = 0
KPA1 031758Z 18006KT 31/19 A3014 RMK A01 T03120186  RH  047%=      5-min Rain = 0
KPA1 031759Z 18005KT 31/19 A3014 RMK A01 T03130186  RH  047%=      5-min Rain = 0
KPA1 031800Z 17008KT 31/19 A3014 RMK A01 T03120186  RH  047%=      5-min Rain = 0
KPA1 031801Z 16009KT 31/19 A3014 RMK A01 T03130191  RH  048%=      5-min Rain = 0
KPA1 031802Z 16009KT 32/19 A3014 RMK A01 T03160190  RH  047%=      5-min Rain = 0
KPA1 031803Z 15006KT 32/18 A3014 RMK A01 T03160182  RH  045%=      5-min Rain = 0
KPA1 031804Z 15005KT 31/18 A3014 RMK A01 T03130183  RH  046%=      5-min Rain = 0
KPA1 031805Z 14008KT 31/19 A3014 RMK A01 T03120189  RH  048%=      5-min Rain = 0
KPA1 031806Z 16006KT 32/19 A3014 RMK A01 T03160191  RH  047%=      5-min Rain = 0
KPA1 031807Z 15005KT 32/19 A3014 RMK A01 T03180188  RH  046%=      5-min Rain = 0
KPA1 031808Z 18006KT 32/19 A3014 RMK A01 T03190188  RH  046%=      5-min Rain = 0
KPA1 031809Z 19005KT 32/18 A3014 RMK A01 T03180183  RH  045%=      5-min Rain = 0
KPA1 031810Z 17004KT 32/18 A3014 RMK A01 T03150182  RH  045%=      5-min Rain = 0
KPA1 031811Z 20007KT 32/19 A3014 RMK A01 T03150188  RH  047%=      5-min Rain = 0
KPA1 031812Z 17006KT 32/19 A3014 RMK A01 T03170193  RH  048%=      5-min Rain = 0
KPA1 031813Z 18007KT 32/19 A3014 RMK A01 T03190192  RH  047%=      5-min Rain = 0
KPA1 031814Z 18005KT 32/19 A3014 RMK A01 T03190187  RH  046%=      5-min Rain = 0
KPA1 031815Z 17003KT 32/19 A3014 RMK A01 T03190193  RH  047%=      5-min Rain = 0
KPA1 031816Z 19005KT 32/19 A3014 RMK A01 T03220190  RH  046%=      5-min Rain = 0
KPA1 031817Z 16007KT 32/19 A3014 RMK A01 T03230190  RH  046%=      5-min Rain = 0
KPA1 031818Z 13005KT 32/18 A3014 RMK A01 T03220184  RH  044%=      5-min Rain = 0
KPA1 031819Z 14007KT 32/19 A3014 RMK A01 T03200186  RH  045%=      5-min Rain = 0
KPA1 031820Z 14007KT 32/18 A3014 RMK A01 T03200182  RH  044%=      5-min Rain = 0
KPA1 031821Z 15004KT 32/18 A3014 RMK A01 T03200180  RH  043%=      5-min Rain = 0
KPA1 031822Z 16003KT 32/18 A3014 RMK A01 T03180179  RH  043%=      5-min Rain = 0
KPA1 031823Z 14004KT 32/18 A3014 RMK A01 T03180183  RH  045%=      5-min Rain = 0
KPA1 031824Z 17006KT 32/19 A3014 RMK A01 T03180188  RH  046%=      5-min Rain = 0
KPA1 031825Z 17007KT 32/19 A3014 RMK A01 T03200190  RH  046%=      5-min Rain = 0
KPA1 031826Z 18008KT 32/19 A3014 RMK A01 T03210186  RH  045%=      5-min Rain = 0
KPA1 031827Z 18009KT 32/19 A3014 RMK A01 T03190188  RH  046%=      5-min Rain = 0
KPA1 031828Z 14008KT 32/19 A3014 RMK A01 T03200188  RH  045%=      5-min Rain = 0
KPA1 031829Z 14007KT 32/18 A3014 RMK A01 T03220181  RH  043%=      5-min Rain = 0
KPA1 031830Z 14007KT 32/19 A3014 RMK A01 T03190186  RH  045%=      5-min Rain = 0
KPA1 031831Z 13007KT 32/19 A3014 RMK A01 T03180186  RH  046%=      5-min Rain = 0
KPA1 031832Z 13007KT 32/18 A3014 RMK A01 T03170184  RH  045%=      5-min Rain = 0
KPA1 031833Z 17009KT 31/19 A3013 RMK A01 T03140187  RH  047%=      5-min Rain = 0
KPA1 031834Z 17008KT 32/19 A3013 RMK A01 T03150189  RH  047%=      5-min Rain = 0
KPA1 031835Z 18009KT 32/19 A3013 RMK A01 T03180190  RH  047%=      5-min Rain = 0
KPA1 031836Z 18008KT 32/19 A3013 RMK A01 T03200188  RH  046%=      5-min Rain = 0
KPA1 031837Z 20008KT 32/19 A3013 RMK A01 T03200186  RH  045%=      5-min Rain = 0
KPA1 031838Z 17006KT 32/19 A3013 RMK A01 T03190188  RH  046%=      5-min Rain = 0
KPA1 031839Z 17005KT 32/19 A3013 RMK A01 T03190186  RH  045%=      5-min Rain = 0
KPA1 031840Z 20007KT 32/19 A3013 RMK A01 T03190189  RH  046%=      5-min Rain = 0
KPA1 031841Z 17007KT 32/19 A3013 RMK A01 T03210194  RH  047%=      5-min Rain = 0
KPA1 031842Z 16010KT 32/19 A3013 RMK A01 T03240190  RH  045%=      5-min Rain = 0
KPA1 031843Z 15006KT 32/19 A3013 RMK A01 T03230188  RH  045%=      5-min Rain = 0
KPA1 031844Z 13007KT 32/18 A3013 RMK A01 T03180182  RH  044%=      5-min Rain = 0
KPA1 031845Z 13007KT 32/19 A3013 RMK A01 T03150187  RH  046%=      5-min Rain = 0
KPA1 031846Z 13006KT 32/18 A3013 RMK A01 T03150184  RH  046%=      5-min Rain = 0
KPA1 031847Z 14009KT 32/19 A3013 RMK A01 T03160190  RH  047%=      5-min Rain = 0
KPA1 031848Z 14010KT 32/19 A3013 RMK A01 T03200193  RH  047%=      5-min Rain = 0
KPA1 031849Z 13010KT 32/19 A3013 RMK A01 T03220188  RH  045%=      5-min Rain = 0
KPA1 031850Z 15009KT 32/19 A3013 RMK A01 T03230190  RH  045%=      5-min Rain = 0
KPA1 031851Z 13007KT 32/19 A3013 RMK A01 T03220189  RH  045%=      5-min Rain = 0
KPA1 031852Z 13007KT 32/19 A3013 RMK A01 T03220189  RH  045%=      5-min Rain = 0
KPA1 031853Z 13007KT 32/19 A3013 RMK A01 T03220186  RH  045%=      5-min Rain = 0
KPA1 031854Z 12007KT 32/18 A3013 RMK A01 T03230183  RH  044%=      5-min Rain = 0
KPA1 031855Z 12004KT 32/18 A3013 RMK A01 T03220181  RH  043%=      5-min Rain = 0
KPA1 031856Z 12005KT 32/18 A3013 RMK A01 T03220184  RH  044%=      5-min Rain = 0
KPA1 031857Z 13007KT 32/18 A3013 RMK A01 T03230184  RH  044%=      5-min Rain = 0
KPA1 031858Z 13009KT 32/18 A3013 RMK A01 T03230184  RH  044%=      5-min Rain = 0
KPA1 031859Z 16009KT 33/19 A3013 RMK A01 T03250188  RH  044%=      5-min Rain = 0
KPA1 031900Z 16008KT 33/18 A3013 RMK A01 T03270179  RH  041%=      5-min Rain = 0
KPA1 031901Z 16003KT 32/18 A3013 RMK A01 T03240175  RH  041%=      5-min Rain = 0
KPA1 031902Z 15004KT 32/18 A3013 RMK A01 T03210177  RH  042%=      5-min Rain = 0
KPA1 031903Z 17009KT 32/18 A3013 RMK A01 T03220182  RH  043%=      5-min Rain = 0
KPA1 031904Z 18010KT 32/17 A3013 RMK A01 T03240174  RH  041%=      5-min Rain = 0
KPA1 031905Z 18009KT 32/17 A3013 RMK A01 T03240172  RH  040%=      5-min Rain = 0
KPA1 031906Z 18007KT 32/17 A3013 RMK A01 T03230171  RH  040%=      5-min Rain = 0
KPA1 031907Z 19006KT 32/18 A3013 RMK A01 T03220175  RH  041%=      5-min Rain = 0
KPA1 031908Z 20005KT 32/17 A3012 RMK A01 T03220174  RH  041%=      5-min Rain = 0
KPA1 031909Z 18009KT 32/18 A3012 RMK A01 T03220179  RH  043%=      5-min Rain = 0
KPA1 031910Z 16009KT 32/17 A3012 RMK A01 T03240173  RH  041%=      5-min Rain = 0
KPA1 031911Z 15009KT 32/17 A3012 RMK A01 T03240173  RH  040%=      5-min Rain = 0
KPA1 031912Z 15007KT 33/17 A3012 RMK A01 T03250173  RH  040%=      5-min Rain = 0
KPA1 031913Z 13010KT 33/18 A3012 RMK A01 T03250176  RH  041%=      5-min Rain = 0
KPA1 031914Z 16007KT 33/17 A3012 RMK A01 T03260169  RH  039%=      5-min Rain = 0
KPA1 031915Z 14008KT 33/18 A3012 RMK A01 T03250175  RH  041%=      5-min Rain = 0
KPA1 031916Z 12007KT 33/18 A3012 RMK A01 T03250178  RH  041%=      5-min Rain = 0
KPA1 031917Z 13008KT 33/17 A3012 RMK A01 T03260173  RH  040%=      5-min Rain = 0
KPA1 031918Z 17006KT 33/18 A3012 RMK A01 T03260176  RH  041%=      5-min Rain = 0
KPA1 031919Z 18003KT 33/16 A3012 RMK A01 T03270163  RH  037%=      5-min Rain = 0
KPA1 031920Z 20008KT 33/17 A3012 RMK A01 T03260170  RH  039%=      5-min Rain = 0
KPA1 031921Z 20004KT 33/16 A3012 RMK A01 T03260164  RH  038%=      5-min Rain = 0
KPA1 031922Z 15003KT 32/17 A3012 RMK A01 T03230171  RH  040%=      5-min Rain = 0
KPA1 031923Z 17007KT 32/17 A3012 RMK A01 T03240174  RH  041%=      5-min Rain = 0
KPA1 031924Z 18009KT 33/18 A3012 RMK A01 T03270175  RH  040%=      5-min Rain = 0
KPA1 031925Z 18007KT 33/17 A3012 RMK A01 T03290172  RH  039%=      5-min Rain = 0
KPA1 031926Z 15007KT 33/17 A3012 RMK A01 T03290171  RH  039%=      5-min Rain = 0
KPA1 031927Z 12008KT 33/17 A3012 RMK A01 T03290171  RH  039%=      5-min Rain = 0
KPA1 031928Z 15008KT 33/17 A3012 RMK A01 T03270165  RH  038%=      5-min Rain = 0
KPA1 031929Z 15008KT 33/17 A3012 RMK A01 T03260167  RH  039%=      5-min Rain = 0
KPA1 031930Z 15009KT 33/17 A3012 RMK A01 T03270170  RH  039%=      5-min Rain = 0
KPA1 031931Z 18008KT 33/17 A3012 RMK A01 T03320168  RH  037%=      5-min Rain = 0
KPA1 031932Z 19008KT 33/16 A3012 RMK A01 T03320161  RH  036%=      5-min Rain = 0
KPA1 031933Z 19007KT 33/16 A3012 RMK A01 T03310162  RH  037%=      5-min Rain = 0
KPA1 031934Z 21007KT 33/16 A3012 RMK A01 T03310161  RH  036%=      5-min Rain = 0
KPA1 031935Z 21005KT 33/16 A3012 RMK A01 T03290156  RH  035%=      5-min Rain = 0
KPA1 031936Z 23004KT 33/17 A3012 RMK A01 T03260167  RH  038%=      5-min Rain = 0
KPA1 031937Z 22003KT 33/16 A3012 RMK A01 T03260162  RH  037%=      5-min Rain = 0
KPA1 031938Z 20008KT 33/17 A3011 RMK A01 T03260168  RH  039%=      5-min Rain = 0
KPA1 031939Z 21008KT 33/17 A3011 RMK A01 T03290168  RH  038%=      5-min Rain = 0
KPA1 031940Z 18007KT 33/17 A3012 RMK A01 T03300167  RH  038%=      5-min Rain = 0
KPA1 031941Z 15010KT 33/15 A3012 RMK A01 T03310152  RH  034%=      5-min Rain = 0
KPA1 031942Z 15010KT 33/15 A3012 RMK A01 T03320149  RH  033%=      5-min Rain = 0
KPA1 031943Z 15008KT 33/14 A3012 RMK A01 T03310144  RH  032%=      5-min Rain = 0
KPA1 031944Z 16010KT 33/15 A3012 RMK A01 T03300146  RH  033%=      5-min Rain = 0
KPA1 031945Z 16009KT 33/15 A3012 RMK A01 T03310148  RH  033%=      5-min Rain = 0
KPA1 031946Z 17008KT 33/14 A3012 RMK A01 T03320142  RH  032%=      5-min Rain = 0
KPA1 031947Z 16006KT 33/15 A3012 RMK A01 T03310147  RH  033%=      5-min Rain = 0
KPA1 031948Z 15006KT 33/15 A3012 RMK A01 T03310148  RH  033%=      5-min Rain = 0
KPA1 031949Z 14010KT 33/15 A3011 RMK A01 T03320146  RH  033%=      5-min Rain = 0
KPA1 031950Z 13008KT 33/14 A3011 RMK A01 T03310141  RH  032%=      5-min Rain = 0
KPA1 031951Z 17011KT 33/15 A3011 RMK A01 T03280147  RH  034%=      5-min Rain = 0
KPA1 031952Z 16006KT 33/14 A3011 RMK A01 T03290142  RH  032%=      5-min Rain = 0
KPA1 031953Z 16010KT 33/15 A3011 RMK A01 T03280147  RH  034%=      5-min Rain = 0
KPA1 031954Z 17008KT 33/15 A3011 RMK A01 T03290153  RH  035%=      5-min Rain = 0
KPA1 031955Z 18008KT 33/15 A3011 RMK A01 T03320145  RH  033%=      5-min Rain = 0
KPA1 031956Z 19007KT 33/15 A3011 RMK A01 T03320149  RH  033%=      5-min Rain = 0
KPA1 031957Z 20010KT 33/15 A3011 RMK A01 T03320150  RH  034%=      5-min Rain = 0
KPA1 031958Z 19007KT 33/14 A3011 RMK A01 T03310138  RH  031%=      5-min Rain = 0
KPA1 031959Z 21007KT 33/15 A3011 RMK A01 T03300146  RH  033%=      5-min Rain = 0
KPA1 032000Z 21006KT 33/14 A3011 RMK A01 T03290137  RH  031%=      5-min Rain = 0
KPA1 032001Z 19005KT 33/15 A3011 RMK A01 T03280145  RH  033%=      5-min Rain = 0
KPA1 032002Z 19009KT 33/14 A3011 RMK A01 T03290143  RH  033%=      5-min Rain = 0
KPA1 032003Z 18008KT 33/15 A3011 RMK A01 T03300153  RH  034%=      5-min Rain = 0
KPA1 032004Z 17008KT 33/15 A3011 RMK A01 T03320146  RH  033%=      5-min Rain = 0
KPA1 032005Z 17014KT 33/15 A3011 RMK A01 T03320151  RH  034%=      5-min Rain = 0
KPA1 032006Z 17012KT 33/15 A3011 RMK A01 T03330147  RH  033%=      5-min Rain = 0
KPA1 032007Z 18010KT 33/15 A3011 RMK A01 T03330149  RH  033%=      5-min Rain = 0
KPA1 032008Z 16010KT 33/15 A3011 RMK A01 T03340148  RH  033%=      5-min Rain = 0
KPA1 032009Z 16008KT 33/15 A3011 RMK A01 T03330145  RH  032%=      5-min Rain = 0
KPA1 032010Z 15007KT 33/15 A3011 RMK A01 T03320148  RH  033%=      5-min Rain = 0
KPA1 032011Z 16012KT 33/15 A3011 RMK A01 T03310147  RH  033%=      5-min Rain = 0
KPA1 032012Z 16015KT 33/15 A3011 RMK A01 T03320149  RH  033%=      5-min Rain = 0
KPA1 032013Z 15012KT 33/15 A3011 RMK A01 T03310145  RH  032%=      5-min Rain = 0
KPA1 032014Z 17009KT 33/14 A3011 RMK A01 T03300144  RH  032%=      5-min Rain = 0
KPA1 032015Z 17011KT 33/14 A3011 RMK A01 T03310136  RH  031%=      5-min Rain = 0
KPA1 032016Z 18008KT 33/14 A3011 RMK A01 T03310135  RH  031%=      5-min Rain = 0
KPA1 032017Z 17010KT 33/14 A3011 RMK A01 T03310139  RH  031%=      5-min Rain = 0
KPA1 032018Z 16007KT 33/14 A3011 RMK A01 T03330140  RH  031%=      5-min Rain = 0
KPA1 032019Z 16005KT 34/14 A3011 RMK A01 T03350135  RH  030%=      5-min Rain = 0
KPA1 032020Z 15010KT 34/15 A3011 RMK A01 T03350149  RH  033%=      5-min Rain = 0
KPA1 032021Z 14009KT 34/15 A3011 RMK A01 T03350150  RH  033%=      5-min Rain = 0
KPA1 032022Z 12005KT 33/14 A301 RMK A01 T03340142  RH  031%=      5-min Rain = 0
KPA1 032023Z 15008KT 33/15 A301 RMK A01 T03320146  RH  033%=      5-min Rain = 0
KPA1 032024Z 18011G18KT 33/15 A301 RMK A01 T03320153  RH  034%=      5-min Rain = 0
KPA1 032025Z 18011KT 33/14 A3011 RMK A01 T03340144  RH  032%=      5-min Rain = 0
KPA1 032026Z 17010KT 33/14 A301 RMK A01 T03330144  RH  032%=      5-min Rain = 0
KPA1 032027Z 16010KT 33/14 A301 RMK A01 T03320141  RH  031%=      5-min Rain = 0
KPA1 032028Z 16009KT 33/14 A301 RMK A01 T03310144  RH  032%=      5-min Rain = 0
KPA1 032029Z 17011KT 33/15 A301 RMK A01 T03300150  RH  034%=      5-min Rain = 0
KPA1 032030Z 15012KT 33/16 A301 RMK A01 T03310155  RH  035%=      5-min Rain = 0
KPA1 032031Z 16009KT 33/15 A301 RMK A01 T03330149  RH  033%=      5-min Rain = 0
KPA1 032032Z 16008KT 33/15 A301 RMK A01 T03320152  RH  034%=      5-min Rain = 0
KPA1 032033Z 17006KT 33/15 A301 RMK A01 T03320150  RH  034%=      5-min Rain = 0
KPA1 032034Z 16007KT 33/16 A301 RMK A01 T03330157  RH  035%=      5-min Rain = 0
KPA1 032035Z 15007KT 34/16 A301 RMK A01 T03350157  RH  034%=      5-min Rain = 0
KPA1 032036Z 15007KT 34/16 A301 RMK A01 T03360155  RH  034%=      5-min Rain = 0
KPA1 032037Z 18010KT 34/15 A301 RMK A01 T03350147  RH  032%=      5-min Rain = 0
KPA1 032038Z 17008KT 34/15 A301 RMK A01 T03360145  RH  032%=      5-min Rain = 0
KPA1 032039Z 17010KT 34/14 A301 RMK A01 T03370140  RH  031%=      5-min Rain = 0
KPA1 032040Z 16012KT 34/15 A301 RMK A01 T03370147  RH  032%=      5-min Rain = 0
KPA1 032041Z 15011KT 34/15 A301 RMK A01 T03380153  RH  033%=      5-min Rain = 0
KPA1 032042Z 14011KT 34/15 A301 RMK A01 T03370154  RH  033%=      5-min Rain = 0
KPA1 032043Z 14009KT 34/15 A301 RMK A01 T03360150  RH  033%=      5-min Rain = 0
KPA1 032044Z 15007KT 34/15 A301 RMK A01 T03350153  RH  033%=      5-min Rain = 0
KPA1 032045Z 16006KT 34/15 A301 RMK A01 T03350145  RH  032%=      5-min Rain = 0
KPA1 032046Z 16007KT 33/15 A301 RMK A01 T03340145  RH  032%=      5-min Rain = 0
KPA1 032047Z 17005KT 33/14 A301 RMK A01 T03330142  RH  032%=      5-min Rain = 0
KPA1 032048Z 16004KT 33/15 A301 RMK A01 T03320149  RH  033%=      5-min Rain = 0
KPA1 032049Z 18008G13KT 34/16 A301 RMK A01 T03350156  RH  034%=      5-min Rain = 0
KPA1 032050Z 17011KT 34/15 A301 RMK A01 T03370149  RH  032%=      5-min Rain = 0
KPA1 032051Z 17008KT 34/15 A301 RMK A01 T03360146  RH  032%=      5-min Rain = 0
KPA1 032052Z 16007KT 34/15 A301 RMK A01 T03350145  RH  032%=      5-min Rain = 0
KPA1 032053Z 18007KT 33/14 A301 RMK A01 T03340142  RH  032%=      5-min Rain = 0
KPA1 032054Z 17007KT 34/15 A301 RMK A01 T03350148  RH  033%=      5-min Rain = 0
KPA1 032055Z 17010KT 34/16 A3009 RMK A01 T03400158  RH  034%=      5-min Rain = 0
KPA1 032056Z 17010KT 34/15 A3009 RMK A01 T03430149  RH  031%=      5-min Rain = 0
KPA1 032057Z 18006KT 34/15 A3009 RMK A01 T03390145  RH  031%=      5-min Rain = 0
KPA1 032058Z 17007KT 34/14 A3009 RMK A01 T03360144  RH  032%=      5-min Rain = 0
KPA1 032059Z 20006KT 34/15 A3009 RMK A01 T03350152  RH  033%=      5-min Rain = 0
KPA1 032100Z 13010KT 34/15 A3009 RMK A01 T03350154  RH  034%=      5-min Rain = 0
KPA1 032101Z 14009KT 34/15 A3009 RMK A01 T03360154  RH  034%=      5-min Rain = 0
KPA1 032102Z 14009KT 34/15 A3009 RMK A01 T03350151  RH  033%=      5-min Rain = 0
KPA1 032103Z 13009KT 33/15 A3009 RMK A01 T03340151  RH  033%=      5-min Rain = 0
KPA1 032104Z 13010KT 33/15 A3009 RMK A01 T03340152  RH  034%=      5-min Rain = 0
KPA1 032105Z 14010KT 33/16 A3009 RMK A01 T03330164  RH  036%=      5-min Rain = 0
KPA1 032106Z 13014KT 33/18 A3009 RMK A01 T03330177  RH  040%=      5-min Rain = 0
KPA1 032107Z 13010KT 33/17 A3009 RMK A01 T03320173  RH  039%=      5-min Rain = 0
KPA1 032108Z 12012KT 33/18 A3009 RMK A01 T03300176  RH  040%=      5-min Rain = 0
KPA1 032109Z 14012KT 33/18 A3009 RMK A01 T03310179  RH  041%=      5-min Rain = 0
KPA1 032110Z 13012KT 33/17 A3009 RMK A01 T03330171  RH  038%=      5-min Rain = 0
KPA1 032111Z 12011KT 33/17 A3009 RMK A01 T03290165  RH  037%=      5-min Rain = 0
KPA1 032112Z 11008KT 33/17 A3009 RMK A01 T03280171  RH  039%=      5-min Rain = 0
KPA1 032113Z 14006KT 33/17 A3009 RMK A01 T03290173  RH  039%=      5-min Rain = 0
KPA1 032114Z 13011KT 33/18 A3009 RMK A01 T03310175  RH  039%=      5-min Rain = 0
KPA1 032115Z 13015KT 33/17 A3009 RMK A01 T03330173  RH  039%=      5-min Rain = 0
KPA1 032116Z 13013KT 33/17 A3009 RMK A01 T03320172  RH  039%=      5-min Rain = 0
KPA1 032117Z 14013KT 33/18 A3009 RMK A01 T03320177  RH  040%=      5-min Rain = 0
KPA1 032118Z 15012KT 33/18 A3009 RMK A01 T03330175  RH  039%=      5-min Rain = 0
KPA1 032119Z 16012KT 33/18 A3009 RMK A01 T03320175  RH  039%=      5-min Rain = 0
KPA1 032120Z 15012KT 33/18 A3009 RMK A01 T03310176  RH  040%=      5-min Rain = 0
KPA1 032121Z 15011KT 33/17 A3009 RMK A01 T03300173  RH  039%=      5-min Rain = 0
KPA1 032122Z 13012KT 33/18 A3009 RMK A01 T03290180  RH  041%=      5-min Rain = 0
KPA1 032123Z 11010KT 33/18 A3009 RMK A01 T03310175  RH  040%=      5-min Rain = 0
KPA1 032124Z 12009KT 33/17 A3009 RMK A01 T03310173  RH  039%=      5-min Rain = 0
KPA1 032125Z 10006KT 33/17 A3008 RMK A01 T03290173  RH  039%=      5-min Rain = 0
KPA1 032126Z 12009G14KT 33/18 A3008 RMK A01 T03290178  RH  041%=      5-min Rain = 0
KPA1 032127Z 12012KT 33/18 A3009 RMK A01 T03320175  RH  039%=      5-min Rain = 0
KPA1 032128Z 12011G16KT 33/17 A3008 RMK A01 T03310174  RH  039%=      5-min Rain = 0
KPA1 032129Z 12014KT 33/18 A3008 RMK A01 T03310175  RH  039%=      5-min Rain = 0
KPA1 032130Z 11012KT 33/17 A3008 RMK A01 T03310172  RH  039%=      5-min Rain = 0
KPA1 032131Z 12010KT 33/17 A3008 RMK A01 T03300170  RH  038%=      5-min Rain = 0
KPA1 032132Z 13009KT 33/17 A3008 RMK A01 T03290171  RH  039%=      5-min Rain = 0
KPA1 032133Z 13007KT 33/17 A3008 RMK A01 T03280171  RH  039%=      5-min Rain = 0
KPA1 032134Z 12011KT 33/18 A3008 RMK A01 T03280175  RH  040%=      5-min Rain = 0
KPA1 032135Z 12014KT 33/18 A3008 RMK A01 T03290175  RH  040%=      5-min Rain = 0
KPA1 032136Z 14013KT 33/17 A3008 RMK A01 T03300174  RH  040%=      5-min Rain = 0
KPA1 032137Z 14013KT 33/18 A3008 RMK A01 T03300177  RH  040%=      5-min Rain = 0
KPA1 032138Z 14011KT 33/17 A3008 RMK A01 T03290174  RH  040%=      5-min Rain = 0
KPA1 032139Z 16006KT 33/17 A3008 RMK A01 T03290172  RH  039%=      5-min Rain = 0
KPA1 032140Z 15008G15KT 33/18 A3008 RMK A01 T03290178  RH  041%=      5-min Rain = 0
KPA1 032141Z 14014KT 33/18 A3008 RMK A01 T03310179  RH  040%=      5-min Rain = 0
KPA1 032142Z 15013KT 33/18 A3008 RMK A01 T03320177  RH  040%=      5-min Rain = 0
KPA1 032143Z 14014KT 33/17 A3008 RMK A01 T03330174  RH  039%=      5-min Rain = 0
KPA1 032144Z 13011G16KT 33/17 A3008 RMK A01 T03310170  RH  038%=      5-min Rain = 0
KPA1 032145Z 13010KT 33/17 A3008 RMK A01 T03290170  RH  039%=      5-min Rain = 0
KPA1 032146Z 13009KT 33/18 A3008 RMK A01 T03290178  RH  041%=      5-min Rain = 0
KPA1 032147Z 12009KT 33/18 A3008 RMK A01 T03340179  RH  040%=      5-min Rain = 0
KPA1 032148Z 13009KT 34/17 A3008 RMK A01 T03350173  RH  038%=      5-min Rain = 0
KPA1 032149Z 14008KT 33/18 A3008 RMK A01 T03340176  RH  039%=      5-min Rain = 0
KPA1 032150Z 15009KT 33/17 A3008 RMK A01 T03340174  RH  038%=      5-min Rain = 0
KPA1 032151Z 16009KT 33/18 A3008 RMK A01 T03340177  RH  039%=      5-min Rain = 0
KPA1 032152Z 15010KT 34/18 A3008 RMK A01 T03360176  RH  039%=      5-min Rain = 0
KPA1 032153Z 14011KT 34/17 A3008 RMK A01 T03360172  RH  038%=      5-min Rain = 0
KPA1 032154Z 14009KT 34/18 A3008 RMK A01 T03350175  RH  039%=      5-min Rain = 0
KPA1 032155Z 14011KT 34/17 A3008 RMK A01 T03350174  RH  038%=      5-min Rain = 0
KPA1 032156Z 13011KT 34/17 A3008 RMK A01 T03350173  RH  038%=      5-min Rain = 0
KPA1 032157Z 14010KT 33/17 A3008 RMK A01 T03340170  RH  038%=      5-min Rain = 0
KPA1 032158Z 14013KT 33/17 A3008 RMK A01 T03330172  RH  038%=      5-min Rain = 0
KPA1 032159Z 14013KT 33/17 A3008 RMK A01 T03330169  RH  038%=      5-min Rain = 0
KPA1 032200Z 15012KT 33/17 A3008 RMK A01 T03330170  RH  038%=      5-min Rain = 0
KPA1 032201Z 13011KT 33/17 A3008 RMK A01 T03320169  RH  038%=      5-min Rain = 0
KPA1 032202Z 14009KT 33/17 A3008 RMK A01 T03330170  RH  038%=      5-min Rain = 0
KPA1 032203Z 12010KT 33/17 A3008 RMK A01 T03330171  RH  038%=      5-min Rain = 0
KPA1 032204Z 12009KT 33/17 A3008 RMK A01 T03330166  RH  037%=      5-min Rain = 0
KPA1 032205Z 14006KT 33/17 A3008 RMK A01 T03310170  RH  038%=      5-min Rain = 0
KPA1 032206Z 17006KT 33/17 A3008 RMK A01 T03320165  RH  037%=      5-min Rain = 0
KPA1 032207Z 17007KT 33/16 A3008 RMK A01 T03320162  RH  036%=      5-min Rain = 0
KPA1 032208Z 14006KT 33/17 A3008 RMK A01 T03300166  RH  037%=      5-min Rain = 0
KPA1 032209Z 13006KT 33/17 A3008 RMK A01 T03300167  RH  038%=      5-min Rain = 0
KPA1 032210Z 13011KT 33/17 A3008 RMK A01 T03310169  RH  038%=      5-min Rain = 0
KPA1 032211Z 13011KT 33/17 A3008 RMK A01 T03310168  RH  038%=      5-min Rain = 0
KPA1 032212Z 13013KT 33/17 A3008 RMK A01 T03330167  RH  037%=      5-min Rain = 0
KPA1 032213Z 12012KT 33/17 A3008 RMK A01 T03320166  RH  037%=      5-min Rain = 0
KPA1 032214Z 13010KT 33/16 A3008 RMK A01 T03320163  RH  036%=      5-min Rain = 0
KPA1 032215Z 13009KT 33/17 A3008 RMK A01 T03300166  RH  038%=      5-min Rain = 0
KPA1 032216Z 14011KT 33/17 A3008 RMK A01 T03300168  RH  038%=      5-min Rain = 0
KPA1 032217Z 13013KT 33/17 A3008 RMK A01 T03310169  RH  038%=      5-min Rain = 0
KPA1 032218Z 13014KT 33/17 A3008 RMK A01 T03320168  RH  037%=      5-min Rain = 0
KPA1 032219Z 13012KT 33/16 A3008 RMK A01 T03330164  RH  036%=      5-min Rain = 0
KPA1 032220Z 14009KT 33/17 A3008 RMK A01 T03320168  RH  038%=      5-min Rain = 0
KPA1 032221Z 13011KT 33/17 A3008 RMK A01 T03330169  RH  038%=      5-min Rain = 0
KPA1 032222Z 13012KT 33/17 A3008 RMK A01 T03330167  RH  037%=      5-min Rain = 0
KPA1 032223Z 13011KT 33/17 A3008 RMK A01 T03320167  RH  038%=      5-min Rain = 0
KPA1 032224Z 13011KT 33/17 A3008 RMK A01 T03320169  RH  038%=      5-min Rain = 0
KPA1 032225Z 15009KT 33/17 A3008 RMK A01 T03330169  RH  038%=      5-min Rain = 0
KPA1 032226Z 14011G16KT 33/17 A3008 RMK A01 T03320167  RH  037%=      5-min Rain = 0
KPA1 032227Z 12014KT 33/17 A3008 RMK A01 T03310165  RH  037%=      5-min Rain = 0
KPA1 032228Z 11011KT 33/16 A3008 RMK A01 T03300164  RH  037%=      5-min Rain = 0
KPA1 032229Z 11010KT 33/16 A3008 RMK A01 T03290163  RH  037%=      5-min Rain = 0
KPA1 032230Z 13012KT 33/17 A3008 RMK A01 T03290169  RH  038%=      5-min Rain = 0
KPA1 032231Z 13009KT 33/16 A3007 RMK A01 T03310164  RH  037%=      5-min Rain = 0
KPA1 032232Z 11011KT 33/17 A3007 RMK A01 T03300166  RH  037%=      5-min Rain = 0
KPA1 032233Z 12013KT 33/17 A3007 RMK A01 T03310167  RH  037%=      5-min Rain = 0
KPA1 032234Z 12013KT 33/16 A3007 RMK A01 T03330164  RH  036%=      5-min Rain = 0
KPA1 032235Z 13008KT 33/16 A3007 RMK A01 T03310163  RH  037%=      5-min Rain = 0
KPA1 032236Z 14011KT 33/17 A3007 RMK A01 T03310167  RH  038%=      5-min Rain = 0
KPA1 032237Z 14012KT 33/17 A3007 RMK A01 T03320173  RH  039%=      5-min Rain = 0
KPA1 032238Z 13012KT 33/17 A3007 RMK A01 T03330169  RH  038%=      5-min Rain = 0
KPA1 032239Z 12011KT 33/17 A3007 RMK A01 T03320169  RH  038%=      5-min Rain = 0
KPA1 032240Z 13010KT 33/17 A3007 RMK A01 T03320171  RH  038%=      5-min Rain = 0
KPA1 032241Z 13011KT 33/17 A3007 RMK A01 T03320172  RH  038%=      5-min Rain = 0
KPA1 032242Z 15010KT 33/18 A3007 RMK A01 T03330175  RH  039%=      5-min Rain = 0
KPA1 032243Z 15011KT 33/17 A3007 RMK A01 T03340166  RH  037%=      5-min Rain = 0
KPA1 032244Z 14010KT 33/17 A3007 RMK A01 T03330167  RH  037%=      5-min Rain = 0
KPA1 032245Z 14013KT 33/17 A3007 RMK A01 T03330169  RH  038%=      5-min Rain = 0
KPA1 032246Z 12012KT 33/17 A3007 RMK A01 T03320165  RH  037%=      5-min Rain = 0
KPA1 032247Z 12013KT 33/16 A3007 RMK A01 T03310164  RH  037%=      5-min Rain = 0
KPA1 032248Z 13012KT 33/16 A3007 RMK A01 T03290160  RH  036%=      5-min Rain = 0
KPA1 032249Z 14011KT 33/16 A3007 RMK A01 T03270162  RH  037%=      5-min Rain = 0
KPA1 032250Z 13013KT 33/16 A3007 RMK A01 T03260164  RH  038%=      5-min Rain = 0
KPA1 032251Z 12011KT 33/17 A3007 RMK A01 T03250166  RH  038%=      5-min Rain = 0
KPA1 032252Z 13011KT 33/16 A3007 RMK A01 T03270164  RH  038%=      5-min Rain = 0
KPA1 032253Z 13013KT 33/17 A3007 RMK A01 T03270166  RH  038%=      5-min Rain = 0
KPA1 032254Z 13013KT 33/16 A3007 RMK A01 T03260159  RH  037%=      5-min Rain = 0
KPA1 032255Z 13011KT 33/16 A3007 RMK A01 T03260159  RH  037%=      5-min Rain = 0
KPA1 032256Z 14013KT 33/16 A3007 RMK A01 T03270163  RH  037%=      5-min Rain = 0
KPA1 032257Z 14012KT 33/17 A3006 RMK A01 T03280165  RH  038%=      5-min Rain = 0
KPA1 032258Z 13013KT 33/17 A3006 RMK A01 T03280165  RH  038%=      5-min Rain = 0
KPA1 032259Z 13012KT 33/16 A3006 RMK A01 T03290161  RH  037%=      5-min Rain = 0
KPA1 032300Z 13011KT 33/16 A3006 RMK A01 T03280161  RH  037%=      5-min Rain = 0
KPA1 032301Z 14010KT 33/17 A3006 RMK A01 T03290166  RH  038%=      5-min Rain = 0
KPA1 032302Z 13010KT 33/17 A3006 RMK A01 T03300166  RH  038%=      5-min Rain = 0
KPA1 032303Z 13009KT 33/16 A3006 RMK A01 T03310160  RH  036%=      5-min Rain = 0
KPA1 032304Z 13011KT 33/16 A3006 RMK A01 T03300162  RH  037%=      5-min Rain = 0
KPA1 032305Z 12010KT 33/16 A3006 RMK A01 T03310161  RH  036%=      5-min Rain = 0
KPA1 032306Z 12011KT 33/16 A3006 RMK A01 T03310162  RH  036%=      5-min Rain = 0
KPA1 032307Z 13009KT 33/16 A3006 RMK A01 T03320164  RH  037%=      5-min Rain = 0
KPA1 032308Z 12009KT 33/16 A3006 RMK A01 T03320164  RH  037%=      5-min Rain = 0
KPA1 032309Z 12009G14KT 33/16 A3006 RMK A01 T03320164  RH  036%=      5-min Rain = 0
KPA1 032310Z 13012KT 33/17 A3006 RMK A01 T03320165  RH  037%=      5-min Rain = 0
KPA1 032311Z 13011KT 33/16 A3006 RMK A01 T03320163  RH  036%=      5-min Rain = 0
KPA1 032312Z 13010KT 33/17 A3006 RMK A01 T03310165  RH  037%=      5-min Rain = 0
KPA1 032313Z 14007KT 33/17 A3006 RMK A01 T03300165  RH  037%=      5-min Rain = 0
KPA1 032314Z 13011KT 33/17 A3005 RMK A01 T03310168  RH  038%=      5-min Rain = 0
KPA1 032315Z 13014KT 33/16 A3006 RMK A01 T03300163  RH  037%=      5-min Rain = 0
KPA1 032316Z 13011KT 33/16 A3005 RMK A01 T03300161  RH  036%=      5-min Rain = 0
KPA1 032317Z 13010KT 33/16 A3005 RMK A01 T03300162  RH  037%=      5-min Rain = 0
KPA1 032318Z 13012KT 33/16 A3005 RMK A01 T03300162  RH  036%=      5-min Rain = 0
KPA1 032319Z 13013KT 33/16 A3005 RMK A01 T03300161  RH  036%=      5-min Rain = 0
KPA1 032320Z 13012KT 33/16 A3005 RMK A01 T03300164  RH  037%=      5-min Rain = 0
KPA1 032321Z 12012KT 33/17 A3005 RMK A01 T03300165  RH  037%=      5-min Rain = 0
KPA1 032322Z 13014KT 33/16 A3005 RMK A01 T03300164  RH  037%=      5-min Rain = 0
KPA1 032323Z 15012KT 33/17 A3005 RMK A01 T03310166  RH  037%=      5-min Rain = 0
KPA1 032324Z 15011KT 33/16 A3005 RMK A01 T03300162  RH  037%=      5-min Rain = 0
KPA1 032325Z 13012KT 33/16 A3005 RMK A01 T03290163  RH  037%=      5-min Rain = 0
KPA1 032326Z 13010KT 33/16 A3005 RMK A01 T03280163  RH  037%=      5-min Rain = 0
KPA1 032327Z 13011KT 33/16 A3005 RMK A01 T03290164  RH  037%=      5-min Rain = 0
KPA1 032328Z 14013KT 33/16 A3005 RMK A01 T03300164  RH  037%=      5-min Rain = 0
KPA1 032329Z 14012KT 33/16 A3005 RMK A01 T03300161  RH  036%=      5-min Rain = 0
KPA1 032330Z 14014KT 33/16 A3005 RMK A01 T03290161  RH  036%=      5-min Rain = 0
KPA1 032331Z 14010KT 33/16 A3005 RMK A01 T03280159  RH  036%=      5-min Rain = 0
KPA1 032332Z 14008KT 33/16 A3005 RMK A01 T03280162  RH  037%=      5-min Rain = 0
KPA1 032333Z 14009KT 33/17 A3005 RMK A01 T03280166  RH  038%=      5-min Rain = 0
KPA1 032334Z 12009KT 33/17 A3005 RMK A01 T03290167  RH  038%=      5-min Rain = 0
KPA1 032335Z 13010KT 33/16 A3005 RMK A01 T03300164  RH  037%=      5-min Rain = 0
KPA1 032336Z 13012KT 33/16 A3005 RMK A01 T03300164  RH  037%=      5-min Rain = 0
KPA1 032337Z 13011KT 33/16 A3005 RMK A01 T03300163  RH  037%=      5-min Rain = 0
KPA1 032338Z 13013KT 33/16 A3005 RMK A01 T03300159  RH  036%=      5-min Rain = 0
KPA1 032339Z 13011KT 33/16 A3005 RMK A01 T03300160  RH  036%=      5-min Rain = 0
KPA1 032340Z 13012KT 33/16 A3005 RMK A01 T03280160  RH  037%=      5-min Rain = 0
KPA1 032341Z 13011KT 33/16 A3005 RMK A01 T03280159  RH  036%=      5-min Rain = 0
KPA1 032342Z 13012KT 33/16 A3005 RMK A01 T03270159  RH  036%=      5-min Rain = 0
KPA1 032343Z 14010KT 33/16 A3005 RMK A01 T03270162  RH  037%=      5-min Rain = 0
KPA1 032344Z 14011KT 33/16 A3005 RMK A01 T03270162  RH  037%=      5-min Rain = 0
KPA1 032345Z 14010KT 33/16 A3005 RMK A01 T03280163  RH  037%=      5-min Rain = 0
KPA1 032346Z 15009KT 33/16 A3005 RMK A01 T03280163  RH  037%=      5-min Rain = 0
KPA1 032347Z 15012KT 33/16 A3005 RMK A01 T03280164  RH  037%=      5-min Rain = 0
KPA1 032348Z 14010KT 33/16 A3005 RMK A01 T03280163  RH  037%=      5-min Rain = 0
KPA1 032349Z 14009KT 33/17 A3005 RMK A01 T03280165  RH  038%=      5-min Rain = 0
KPA1 032350Z 14010KT 33/17 A3005 RMK A01 T03290165  RH  038%=      5-min Rain = 0
KPA1 032351Z 13008KT 33/16 A3005 RMK A01 T03290164  RH  037%=      5-min Rain = 0
KPA1 032352Z 13010KT 33/17 A3005 RMK A01 T03280165  RH  038%=      5-min Rain = 0
KPA1 032353Z 13012KT 33/16 A3005 RMK A01 T03290162  RH  037%=      5-min Rain = 0
KPA1 032354Z 14011KT 33/16 A3005 RMK A01 T03280163  RH  037%=      5-min Rain = 0
KPA1 032355Z 13009KT 33/17 A3005 RMK A01 T03270167  RH  038%=      5-min Rain = 0
KPA1 032356Z 14008KT 33/17 A3005 RMK A01 T03280171  RH  039%=      5-min Rain = 0
KPA1 032357Z 14008KT 33/17 A3005 RMK A01 T03290169  RH  038%=      5-min Rain = 0
KPA1 032358Z 14009KT 33/17 A3005 RMK A01 T03290168  RH  038%=      5-min Rain = 0
KPA1 032359Z 14009KT 33/17 A3005 RMK A01 T03280167  RH  038%=      5-min Rain = 0
KPA1 040000Z 13007KT 33/17 A3005 RMK A01 T03270167  RH  038%=      5-min Rain = 0
KPA1 040001Z 13008KT 33/17 A3006 RMK A01 T03270168  RH  039%=      5-min Rain = 0
KPA1 040002Z 13008KT 33/17 A3006 RMK A01 T03280167  RH  038%=      5-min Rain = 0
KPA1 040003Z 14008KT 33/17 A3006 RMK A01 T03290170  RH  039%=      5-min Rain = 0
KPA1 040004Z 13008KT 33/17 A3006 RMK A01 T03290167  RH  038%=      5-min Rain = 0
KPA1 040005Z 14010KT 33/17 A3006 RMK A01 T03280167  RH  038%=      5-min Rain = 0
KPA1 040006Z 14009KT 33/17 A3006 RMK A01 T03270168  RH  039%=      5-min Rain = 0
KPA1 040007Z 14009KT 33/17 A3006 RMK A01 T03270169  RH  039%=      5-min Rain = 0
KPA1 040008Z 14009KT 33/17 A3006 RMK A01 T03270165  RH  038%=      5-min Rain = 0
KPA1 040009Z 14009KT 33/17 A3006 RMK A01 T03260167  RH  039%=      5-min Rain = 0
KPA1 040010Z 14011KT 33/16 A3006 RMK A01 T03250164  RH  038%=      5-min Rain = 0
KPA1 040011Z 13011KT 32/17 A3006 RMK A01 T03240165  RH  038%=      5-min Rain = 0
KPA1 040012Z 13012KT 32/16 A3006 RMK A01 T03230160  RH  038%=      5-min Rain = 0
KPA1 040013Z 13011KT 32/16 A3006 RMK A01 T03230162  RH  038%=      5-min Rain = 0
KPA1 040014Z 13014KT 32/16 A3006 RMK A01 T03220161  RH  038%=      5-min Rain = 0
KPA1 040015Z 13011KT 32/16 A3006 RMK A01 T03210158  RH  038%=      5-min Rain = 0
KPA1 040016Z 14012KT 32/16 A3006 RMK A01 T03210159  RH  038%=      5-min Rain = 0
KPA1 040017Z 13012KT 32/16 A3006 RMK A01 T03210161  RH  038%=      5-min Rain = 0
KPA1 040018Z 13012KT 32/16 A3006 RMK A01 T03200160  RH  038%=      5-min Rain = 0
KPA1 040019Z 14010KT 32/16 A3006 RMK A01 T03190161  RH  039%=      5-min Rain = 0
KPA1 040020Z 13011KT 32/16 A3006 RMK A01 T03180162  RH  039%=      5-min Rain = 0
KPA1 040021Z 12009KT 32/16 A3006 RMK A01 T03170161  RH  039%=      5-min Rain = 0
KPA1 040022Z 12011KT 32/16 A3006 RMK A01 T03160161  RH  039%=      5-min Rain = 0
KPA1 040023Z 13011KT 32/16 A3006 RMK A01 T03150159  RH  039%=      5-min Rain = 0
KPA1 040024Z 12010KT 32/16 A3006 RMK A01 T03150159  RH  039%=      5-min Rain = 0
KPA1 040025Z 13011KT 32/16 A3006 RMK A01 T03150159  RH  039%=      5-min Rain = 0
KPA1 040026Z 13010KT 31/16 A3006 RMK A01 T03140161  RH  040%=      5-min Rain = 0
KPA1 040027Z 13012KT 31/16 A3006 RMK A01 T03140160  RH  040%=      5-min Rain = 0
KPA1 040028Z 13011KT 31/16 A3006 RMK A01 T03140160  RH  040%=      5-min Rain = 0
KPA1 040029Z 13010KT 31/16 A3006 RMK A01 T03140161  RH  040%=      5-min Rain = 0
KPA1 040030Z 13008KT 31/16 A3006 RMK A01 T03140163  RH  040%=      5-min Rain = 0
KPA1 040031Z 13011KT 31/16 A3006 RMK A01 T03140161  RH  040%=      5-min Rain = 0
KPA1 040032Z 13011KT 31/16 A3006 RMK A01 T03140160  RH  040%=      5-min Rain = 0
KPA1 040033Z 14009KT 31/16 A3006 RMK A01 T03130161  RH  040%=      5-min Rain = 0
KPA1 040034Z 14009KT 31/16 A3006 RMK A01 T03120162  RH  040%=      5-min Rain = 0
KPA1 040035Z 14009KT 31/16 A3006 RMK A01 T03120163  RH  041%=      5-min Rain = 0
KPA1 040036Z 13010KT 31/16 A3006 RMK A01 T03110162  RH  041%=      5-min Rain = 0
KPA1 040037Z 13010KT 31/16 A3006 RMK A01 T03110161  RH  040%=      5-min Rain = 0
KPA1 040038Z 13011KT 31/16 A3006 RMK A01 T03120160  RH  040%=      5-min Rain = 0
KPA1 040039Z 14010KT 31/16 A3006 RMK A01 T03120160  RH  040%=      5-min Rain = 0
KPA1 040040Z 14010KT 31/16 A3006 RMK A01 T03120159  RH  040%=      5-min Rain = 0
KPA1 040041Z 14010KT 31/16 A3006 RMK A01 T03120161  RH  040%=      5-min Rain = 0
KPA1 040042Z 14009KT 31/16 A3006 RMK A01 T03120161  RH  040%=      5-min Rain = 0
KPA1 040043Z 14010KT 31/16 A3006 RMK A01 T03110161  RH  040%=      5-min Rain = 0
KPA1 040044Z 14010KT 31/16 A3006 RMK A01 T03110160  RH  040%=      5-min Rain = 0
KPA1 040045Z 14009KT 31/16 A3006 RMK A01 T03110161  RH  041%=      5-min Rain = 0
KPA1 040046Z 14010KT 31/16 A3006 RMK A01 T03100161  RH  041%=      5-min Rain = 0
KPA1 040047Z 14010KT 31/16 A3006 RMK A01 T03090162  RH  041%=      5-min Rain = 0
KPA1 040048Z 14010KT 31/16 A3006 RMK A01 T03090164  RH  042%=      5-min Rain = 0
KPA1 040049Z 15009KT 31/16 A3006 RMK A01 T03070164  RH  042%=      5-min Rain = 0
KPA1 040050Z 14009KT 31/17 A3006 RMK A01 T03060166  RH  043%=      5-min Rain = 0
KPA1 040051Z 14010KT 31/17 A3006 RMK A01 T03060166  RH  043%=      5-min Rain = 0
KPA1 040052Z 15009KT 31/17 A3006 RMK A01 T03050166  RH  043%=      5-min Rain = 0
KPA1 040053Z 15009KT 31/17 A3006 RMK A01 T03050167  RH  043%=      5-min Rain = 0
KPA1 040054Z 15009KT 31/17 A3007 RMK A01 T03050167  RH  043%=      5-min Rain = 0
KPA1 040055Z 15008KT 30/17 A3007 RMK A01 T03040168  RH  044%=      5-min Rain = 0
KPA1 040056Z 14009KT 30/17 A3007 RMK A01 T03030168  RH  044%=      5-min Rain = 0
KPA1 040057Z 15009KT 30/17 A3007 RMK A01 T03030168  RH  044%=      5-min Rain = 0
KPA1 040058Z 14008KT 30/17 A3007 RMK A01 T03030168  RH  044%=      5-min Rain = 0
KPA1 040059Z 14012KT 30/16 A3007 RMK A01 T03030164  RH  043%=      5-min Rain = 0
KPA1 040100Z 14013KT 30/16 A3007 RMK A01 T03040161  RH  042%=      5-min Rain = 0
KPA1 040101Z 15012KT 31/16 A3007 RMK A01 T03050161  RH  042%=      5-min Rain = 0
KPA1 040102Z 16010KT 31/16 A3007 RMK A01 T03050162  RH  042%=      5-min Rain = 0
KPA1 040103Z 16010KT 31/16 A3006 RMK A01 T03050163  RH  042%=      5-min Rain = 0
KPA1 040104Z 16013KT 31/16 A3006 RMK A01 T03050160  RH  041%=      5-min Rain = 0
KPA1 040105Z 16011KT 31/16 A3006 RMK A01 T03060158  RH  041%=      5-min Rain = 0
KPA1 040106Z 16009KT 31/16 A3006 RMK A01 T03070159  RH  041%=      5-min Rain = 0
KPA1 040107Z 15010KT 31/16 A3006 RMK A01 T03060159  RH  041%=      5-min Rain = 0
KPA1 040108Z 15010KT 31/16 A3006 RMK A01 T03060156  RH  040%=      5-min Rain = 0
KPA1 040109Z 16010KT 31/16 A3006 RMK A01 T03060156  RH  040%=      5-min Rain = 0
KPA1 040110Z 17009KT 31/16 A3006 RMK A01 T03060158  RH  041%=      5-min Rain = 0
KPA1 040111Z 16009KT 31/16 A3006 RMK A01 T03050159  RH  041%=      5-min Rain = 0
KPA1 040112Z 16009KT 30/16 A3006 RMK A01 T03040159  RH  042%=      5-min Rain = 0
KPA1 040113Z 17009KT 30/16 A3006 RMK A01 T03030160  RH  042%=      5-min Rain = 0
KPA1 040114Z 17009KT 30/16 A3006 RMK A01 T03020160  RH  042%=      5-min Rain = 0
KPA1 040115Z 17008KT 30/16 A3006 RMK A01 T03020160  RH  042%=      5-min Rain = 0
KPA1 040116Z 17008KT 30/16 A3006 RMK A01 T03010161  RH  043%=      5-min Rain = 0
KPA1 040117Z 18008KT 30/16 A3006 RMK A01 T03010161  RH  043%=      5-min Rain = 0
KPA1 040118Z 17008KT 30/16 A3006 RMK A01 T03000161  RH  043%=      5-min Rain = 0
KPA1 040119Z 17009KT 30/16 A3006 RMK A01 T02990162  RH  044%=      5-min Rain = 0
KPA1 040120Z 17008KT 30/16 A3006 RMK A01 T02980163  RH  044%=      5-min Rain = 0
KPA1 040121Z 17009KT 30/16 A3006 RMK A01 T02970163  RH  045%=      5-min Rain = 0
KPA1 040122Z 17009KT 30/16 A3006 RMK A01 T02950163  RH  045%=      5-min Rain = 0
KPA1 040123Z 17009KT 29/16 A3006 RMK A01 T02940162  RH  045%=      5-min Rain = 0
KPA1 040124Z 17008KT 29/16 A3006 RMK A01 T02940163  RH  045%=      5-min Rain = 0
KPA1 040125Z 17008KT 29/16 A3006 RMK A01 T02930164  RH  046%=      5-min Rain = 0
KPA1 040126Z 17007KT 29/16 A3006 RMK A01 T02920163  RH  046%=      5-min Rain = 0
KPA1 040127Z 17007KT 29/16 A3007 RMK A01 T02900164  RH  046%=      5-min Rain = 0
KPA1 040128Z 17007KT 29/16 A3007 RMK A01 T02890164  RH  047%=      5-min Rain = 0
KPA1 040129Z 17006KT 29/16 A3007 RMK A01 T02880164  RH  047%=      5-min Rain = 0
KPA1 040130Z 17006KT 29/17 A3007 RMK A01 T02870165  RH  048%=      5-min Rain = 0
KPA1 040131Z 17006KT 29/17 A3007 RMK A01 T02850165  RH  048%=      5-min Rain = 0
KPA1 040132Z 16006KT 28/17 A3007 RMK A01 T02840165  RH  049%=      5-min Rain = 0
KPA1 040133Z 16005KT 28/17 A3007 RMK A01 T02830165  RH  049%=      5-min Rain = 0
KPA1 040134Z 16005KT 28/17 A3007 RMK A01 T02820165  RH  049%=      5-min Rain = 0
KPA1 040135Z 15004KT 28/17 A3007 RMK A01 T02810166  RH  050%=      5-min Rain = 0
KPA1 040136Z 15004KT 28/17 A3007 RMK A01 T02800166  RH  050%=      5-min Rain = 0
KPA1 040137Z 14003KT 28/17 A3007 RMK A01 T02790165  RH  050%=      5-min Rain = 0
KPA1 040138Z 14004KT 28/17 A3007 RMK A01 T02780166  RH  050%=      5-min Rain = 0
KPA1 040139Z 14005KT 28/17 A3007 RMK A01 T02780166  RH  051%=      5-min Rain = 0
KPA1 040140Z 14005KT 28/17 A3007 RMK A01 T02770167  RH  051%=      5-min Rain = 0
KPA1 040141Z 14005KT 28/17 A3007 RMK A01 T02770166  RH  051%=      5-min Rain = 0
KPA1 040142Z 14005KT 28/17 A3007 RMK A01 T02760166  RH  051%=      5-min Rain = 0
KPA1 040143Z 14005KT 28/17 A3007 RMK A01 T02760165  RH  051%=      5-min Rain = 0
KPA1 040144Z 14005KT 28/17 A3007 RMK A01 T02760165  RH  051%=      5-min Rain = 0
KPA1 040145Z 14005KT 28/16 A3007 RMK A01 T02760164  RH  050%=      5-min Rain = 0
KPA1 040146Z 14005KT 28/17 A3007 RMK A01 T02760165  RH  050%=      5-min Rain = 0
KPA1 040147Z 14005KT 28/17 A3007 RMK A01 T02770165  RH  051%=      5-min Rain = 0
KPA1 040148Z 14005KT 28/17 A3007 RMK A01 T02760165  RH  051%=      5-min Rain = 0
KPA1 040149Z 14006KT 28/17 A3007 RMK A01 T02760165  RH  051%=      5-min Rain = 0
KPA1 040150Z 15006KT 28/17 A3007 RMK A01 T02760165  RH  051%=      5-min Rain = 0
KPA1 040151Z 15007KT 28/16 A3007 RMK A01 T02760164  RH  051%=      5-min Rain = 0
KPA1 040152Z 15006KT 28/16 A3007 RMK A01 T02760164  RH  051%=      5-min Rain = 0
KPA1 040153Z 15006KT 28/17 A3007 RMK A01 T02750165  RH  051%=      5-min Rain = 0
KPA1 040154Z 15006KT 28/17 A3007 RMK A01 T02750165  RH  051%=      5-min Rain = 0
KPA1 040155Z 15006KT 27/17 A3007 RMK A01 T02740166  RH  052%=      5-min Rain = 0
KPA1 040156Z 15006KT 27/17 A3008 RMK A01 T02730166  RH  052%=      5-min Rain = 0
KPA1 040157Z 15006KT 27/17 A3008 RMK A01 T02710167  RH  053%=      5-min Rain = 0
KPA1 040158Z 15006KT 27/17 A3008 RMK A01 T02700168  RH  054%=      5-min Rain = 0
KPA1 040159Z 15006KT 27/17 A3008 RMK A01 T02680168  RH  054%=      5-min Rain = 0
KPA1 040200Z 15006KT 27/17 A3008 RMK A01 T02670168  RH  055%=      5-min Rain = 0
KPA1 040201Z 14005KT 27/17 A3008 RMK A01 T02660168  RH  055%=      5-min Rain = 0
KPA1 040202Z 14005KT 27/17 A3008 RMK A01 T02650168  RH  055%=      5-min Rain = 0
KPA1 040203Z 14005KT 27/17 A3008 RMK A01 T02650167  RH  055%=      5-min Rain = 0
KPA1 040204Z 14005KT 27/17 A3008 RMK A01 T02650166  RH  055%=      5-min Rain = 0
KPA1 040205Z 14005KT 27/17 A3008 RMK A01 T02650166  RH  054%=      5-min Rain = 0
KPA1 040206Z 14005KT 27/17 A3008 RMK A01 T02660165  RH  054%=      5-min Rain = 0
KPA1 040207Z 14005KT 27/17 A3008 RMK A01 T02670165  RH  054%=      5-min Rain = 0
KPA1 040208Z 14005KT 27/17 A3008 RMK A01 T02670165  RH  053%=      5-min Rain = 0
KPA1 040209Z 14005KT 27/17 A3008 RMK A01 T02680165  RH  053%=      5-min Rain = 0
KPA1 040210Z 13004KT 27/17 A3008 RMK A01 T02680166  RH  053%=      5-min Rain = 0
KPA1 040211Z 13004KT 27/17 A3008 RMK A01 T02680167  RH  054%=      5-min Rain = 0
KPA1 040212Z 13004KT 27/17 A3008 RMK A01 T02670168  RH  054%=      5-min Rain = 0
KPA1 040213Z 13004KT 27/17 A3008 RMK A01 T02660167  RH  055%=      5-min Rain = 0
KPA1 040214Z 13004KT 27/17 A3008 RMK A01 T02650168  RH  055%=      5-min Rain = 0
KPA1 040215Z 12005KT 26/17 A3008 RMK A01 T02630167  RH  055%=      5-min Rain = 0
KPA1 040216Z 12005KT 26/17 A3008 RMK A01 T02620166  RH  055%=      5-min Rain = 0
KPA1 040217Z 12005KT 26/17 A3008 RMK A01 T02610167  RH  056%=      5-min Rain = 0
KPA1 040218Z 12005KT 26/17 A3008 RMK A01 T02600166  RH  056%=      5-min Rain = 0
KPA1 040219Z 12005KT 26/17 A3008 RMK A01 T02590165  RH  056%=      5-min Rain = 0
KPA1 040220Z 11004KT 26/17 A3009 RMK A01 T02590165  RH  056%=      5-min Rain = 0
KPA1 040221Z 11004KT 26/17 A3009 RMK A01 T02580166  RH  057%=      5-min Rain = 0
KPA1 040222Z 11005KT 26/17 A3009 RMK A01 T02570166  RH  057%=      5-min Rain = 0
KPA1 040223Z 11005KT 26/17 A3009 RMK A01 T02570165  RH  057%=      5-min Rain = 0
KPA1 040224Z 12005KT 26/17 A3009 RMK A01 T02580165  RH  057%=      5-min Rain = 0
KPA1 040225Z 12005KT 26/17 A3009 RMK A01 T02580166  RH  057%=      5-min Rain = 0
KPA1 040226Z 12005KT 26/17 A3009 RMK A01 T02580167  RH  057%=      5-min Rain = 0
KPA1 040227Z 12005KT 26/17 A3009 RMK A01 T02570167  RH  057%=      5-min Rain = 0
KPA1 040228Z 12005KT 26/17 A3009 RMK A01 T02570168  RH  058%=      5-min Rain = 0
KPA1 040229Z 12005KT 26/17 A3009 RMK A01 T02560167  RH  058%=      5-min Rain = 0
KPA1 040230Z 13005KT 26/17 A3009 RMK A01 T02550166  RH  057%=      5-min Rain = 0
KPA1 040231Z 13006KT 26/17 A3009 RMK A01 T02560166  RH  058%=      5-min Rain = 0
KPA1 040232Z 13006KT 26/16 A3009 RMK A01 T02550164  RH  057%=      5-min Rain = 0
KPA1 040233Z 13006KT 26/16 A3009 RMK A01 T02560164  RH  057%=      5-min Rain = 0
KPA1 040234Z 13006KT 26/16 A3009 RMK A01 T02570163  RH  056%=      5-min Rain = 0
KPA1 040235Z 12005KT 26/16 A3009 RMK A01 T02580163  RH  056%=      5-min Rain = 0
KPA1 040236Z 12006KT 26/16 A3009 RMK A01 T02590163  RH  055%=      5-min Rain = 0
KPA1 040237Z 10008KT 26/16 A3009 RMK A01 T02590163  RH  055%=      5-min Rain = 0
KPA1 040238Z 10007KT 26/16 A3009 RMK A01 T02590163  RH  055%=      5-min Rain = 0
KPA1 040239Z 11006KT 26/16 A3009 RMK A01 T02590164  RH  056%=      5-min Rain = 0
KPA1 040240Z 11006KT 26/16 A3009 RMK A01 T02600164  RH  056%=      5-min Rain = 0
KPA1 040241Z 11006KT 26/17 A3009 RMK A01 T02600165  RH  055%=      5-min Rain = 0
KPA1 040242Z 11006KT 26/17 A3009 RMK A01 T02610165  RH  055%=      5-min Rain = 0
KPA1 040243Z 11006KT 26/17 A3009 RMK A01 T02610165  RH  055%=      5-min Rain = 0
KPA1 040244Z 10005KT 26/17 A3009 RMK A01 T02610166  RH  056%=      5-min Rain = 0
KPA1 040245Z 10005KT 26/17 A301 RMK A01 T02610167  RH  056%=      5-min Rain = 0
KPA1 040246Z 10006KT 26/17 A301 RMK A01 T02600168  RH  057%=      5-min Rain = 0
KPA1 040247Z 11005KT 26/17 A301 RMK A01 T02580167  RH  057%=      5-min Rain = 0
KPA1 040248Z 10005KT 26/17 A301 RMK A01 T02580167  RH  057%=      5-min Rain = 0
KPA1 040249Z 10005KT 26/17 A301 RMK A01 T02570167  RH  057%=      5-min Rain = 0
KPA1 040250Z 10005KT 26/17 A301 RMK A01 T02570168  RH  058%=      5-min Rain = 0
KPA1 040251Z 09005KT 26/17 A301 RMK A01 T02570168  RH  058%=      5-min Rain = 0
KPA1 040252Z 09006KT 26/17 A301 RMK A01 T02570169  RH  058%=      5-min Rain = 0
KPA1 040253Z 10006KT 26/17 A301 RMK A01 T02570169  RH  058%=      5-min Rain = 0
KPA1 040254Z 10006KT 26/17 A301 RMK A01 T02570170  RH  059%=      5-min Rain = 0
KPA1 040255Z 10006KT 26/17 A301 RMK A01 T02560171  RH  059%=      5-min Rain = 0
KPA1 040256Z 09005KT 26/17 A301 RMK A01 T02560171  RH  059%=      5-min Rain = 0
KPA1 040257Z 10006KT 26/17 A301 RMK A01 T02560171  RH  059%=      5-min Rain = 0
KPA1 040258Z 10006KT 26/17 A301 RMK A01 T02560171  RH  059%=      5-min Rain = 0
KPA1 040259Z 10006KT 26/17 A301 RMK A01 T02560171  RH  059%=      5-min Rain = 0
KPA1 040300Z 10006KT 26/17 A301 RMK A01 T02560171  RH  059%=      5-min Rain = 0
KPA1 040301Z 10006KT 26/17 A301 RMK A01 T02560172  RH  060%=      5-min Rain = 0
KPA1 040302Z 10005KT 26/17 A3011 RMK A01 T02560172  RH  060%=      5-min Rain = 0
KPA1 040303Z 10006KT 26/17 A3011 RMK A01 T02560172  RH  060%=      5-min Rain = 0
KPA1 040304Z 10006KT 26/17 A3011 RMK A01 T02560173  RH  060%=      5-min Rain = 0
KPA1 040305Z 10006KT 26/17 A3011 RMK A01 T02560173  RH  060%=      5-min Rain = 0
KPA1 040306Z 11006KT 26/17 A3011 RMK A01 T02550174  RH  061%=      5-min Rain = 0
KPA1 040307Z 11006KT 26/17 A3011 RMK A01 T02550173  RH  061%=      5-min Rain = 0
KPA1 040308Z 12006KT 26/17 A3011 RMK A01 T02550173  RH  061%=      5-min Rain = 0
KPA1 040309Z 12006KT 26/17 A3011 RMK A01 T02550173  RH  060%=      5-min Rain = 0
KPA1 040310Z 12006KT 26/17 A3011 RMK A01 T02550172  RH  060%=      5-min Rain = 0
KPA1 040311Z 12006KT 26/17 A3011 RMK A01 T02550171  RH  060%=      5-min Rain = 0
KPA1 040312Z 12006KT 26/17 A3011 RMK A01 T02550171  RH  060%=      5-min Rain = 0
KPA1 040313Z 13006KT 26/17 A3011 RMK A01 T02550170  RH  059%=      5-min Rain = 0
KPA1 040314Z 13006KT 26/17 A3011 RMK A01 T02560170  RH  059%=      5-min Rain = 0
KPA1 040315Z 12006KT 26/17 A3011 RMK A01 T02560169  RH  059%=      5-min Rain = 0
KPA1 040316Z 12006KT 26/17 A3011 RMK A01 T02570170  RH  059%=      5-min Rain = 0
KPA1 040317Z 12006KT 26/17 A3011 RMK A01 T02570170  RH  059%=      5-min Rain = 0
KPA1 040318Z 12006KT 26/17 A3011 RMK A01 T02570171  RH  059%=      5-min Rain = 0
KPA1 040319Z 12006KT 26/17 A3011 RMK A01 T02570171  RH  059%=      5-min Rain = 0
KPA1 040320Z 12006KT 26/17 A3011 RMK A01 T02570172  RH  059%=      5-min Rain = 0
KPA1 040321Z 12007KT 26/17 A3011 RMK A01 T02560171  RH  059%=      5-min Rain = 0
KPA1 040322Z 12006KT 26/17 A3011 RMK A01 T02560171  RH  059%=      5-min Rain = 0
KPA1 040323Z 12006KT 26/17 A3011 RMK A01 T02560172  RH  060%=      5-min Rain = 0
KPA1 040324Z 12006KT 26/17 A3011 RMK A01 T02560172  RH  060%=      5-min Rain = 0
KPA1 040325Z 12006KT 26/17 A3011 RMK A01 T02560172  RH  060%=      5-min Rain = 0
KPA1 040326Z 12006KT 26/17 A3011 RMK A01 T02560172  RH  060%=      5-min Rain = 0
KPA1 040327Z 13007KT 26/17 A3012 RMK A01 T02560172  RH  060%=      5-min Rain = 0
KPA1 040328Z 12006KT 26/17 A3012 RMK A01 T02560172  RH  060%=      5-min Rain = 0
KPA1 040329Z 12007KT 26/17 A3012 RMK A01 T02560173  RH  060%=      5-min Rain = 0
KPA1 040330Z 13007KT 26/17 A3012 RMK A01 T02560173  RH  060%=      5-min Rain = 0
KPA1 040331Z 13007KT 26/17 A3012 RMK A01 T02560173  RH  060%=      5-min Rain = 0
KPA1 040332Z 13006KT 26/17 A3012 RMK A01 T02560173  RH  060%=      5-min Rain = 0
KPA1 040333Z 13006KT 26/17 A3012 RMK A01 T02570173  RH  060%=      5-min Rain = 0
KPA1 040334Z 13006KT 26/17 A3012 RMK A01 T02580173  RH  060%=      5-min Rain = 0
KPA1 040335Z 13006KT 26/17 A3012 RMK A01 T02580172  RH  059%=      5-min Rain = 0
KPA1 040336Z 13007KT 26/17 A3012 RMK A01 T02590172  RH  059%=      5-min Rain = 0
KPA1 040337Z 13007KT 26/17 A3012 RMK A01 T02600171  RH  058%=      5-min Rain = 0
KPA1 040338Z 13007KT 26/17 A3012 RMK A01 T02620171  RH  057%=      5-min Rain = 0
KPA1 040339Z 13007KT 26/17 A3012 RMK A01 T02630170  RH  056%=      5-min Rain = 0
KPA1 040340Z 13007KT 27/17 A3012 RMK A01 T02650170  RH  056%=      5-min Rain = 0
KPA1 040341Z 13007KT 27/17 A3012 RMK A01 T02670171  RH  056%=      5-min Rain = 0
KPA1 040342Z 12006KT 27/17 A3012 RMK A01 T02660171  RH  056%=      5-min Rain = 0
KPA1 040343Z 12006KT 27/17 A3012 RMK A01 T02660172  RH  056%=      5-min Rain = 0
KPA1 040344Z 12005KT 27/17 A3013 RMK A01 T02650171  RH  056%=      5-min Rain = 0
KPA1 040345Z 11005KT 26/17 A3013 RMK A01 T02640172  RH  057%=      5-min Rain = 0
KPA1 040346Z 11005KT 26/17 A3013 RMK A01 T02610172  RH  058%=      5-min Rain = 0
KPA1 040347Z 11005KT 26/17 A3013 RMK A01 T02600172  RH  058%=      5-min Rain = 0
KPA1 040348Z 11005KT 26/17 A3013 RMK A01 T02580172  RH  059%=      5-min Rain = 0
KPA1 040349Z 10004KT 26/17 A3013 RMK A01 T02570172  RH  059%=      5-min Rain = 0
KPA1 040350Z 09004KT 26/17 A3013 RMK A01 T02560172  RH  060%=      5-min Rain = 0
KPA1 040351Z 08003KT 26/17 A3013 RMK A01 T02550172  RH  060%=      5-min Rain = 0
KPA1 040352Z 06004KT 26/17 A3013 RMK A01 T02550172  RH  060%=      5-min Rain = 0
KPA1 040353Z 03005KT 25/17 A3013 RMK A01 T02540174  RH  061%=      5-min Rain = 0
KPA1 040354Z 01009KT 25/17 A3013 RMK A01 T02510174  RH  062%=      5-min Rain = 0
KPA1 040355Z 00011KT 25/17 A3014 RMK A01 T02500174  RH  063%=      5-min Rain = 0
KPA1 040356Z 35014KT 25/17 A3013 RMK A01 T02520167  RH  059%=      5-min Rain = 0
KPA1 040357Z 35017KT 26/16 A3013 RMK A01 T02570158  RH  054%=      5-min Rain = 0
KPA1 040358Z 35016KT 26/16 A3013 RMK A01 T02580157  RH  054%=      5-min Rain = 0
KPA1 040359Z 35015KT 26/16 A3014 RMK A01 T02580157  RH  054%=      5-min Rain = 0
KPA1 040400Z 35014KT 26/16 A3014 RMK A01 T02580157  RH  054%=      5-min Rain = 0
KPA1 040401Z 00015KT 26/16 A3014 RMK A01 T02580157  RH  054%=      5-min Rain = 0
KPA1 040402Z 36017KT 26/16 A3014 RMK A01 T02580156  RH  053%=      5-min Rain = 0
KPA1 040403Z 01015KT 26/16 A3014 RMK A01 T02590155  RH  053%=      5-min Rain = 0
KPA1 040404Z 36012KT 26/15 A3014 RMK A01 T02590154  RH  052%=      5-min Rain = 0
KPA1 040405Z 34012KT 26/15 A3014 RMK A01 T02600154  RH  052%=      5-min Rain = 0
KPA1 040406Z 33010KT 26/15 A3014 RMK A01 T02640154  RH  051%=      5-min Rain = 0
KPA1 040407Z 34008KT 27/15 A3014 RMK A01 T02650154  RH  050%=      5-min Rain = 0
KPA1 040408Z 36008KT 27/15 A3014 RMK A01 T02660154  RH  050%=      5-min Rain = 0
KPA1 040409Z 01007KT 27/15 A3014 RMK A01 T02680152  RH  049%=      5-min Rain = 0
KPA1 040410Z 36009KT 27/15 A3014 RMK A01 T02700153  RH  049%=      5-min Rain = 0
KPA1 040411Z 36013KT 27/15 A3014 RMK A01 T02700153  RH  049%=      5-min Rain = 0
KPA1 040412Z 35016KT 27/15 A3014 RMK A01 T02680151  RH  049%=      5-min Rain = 0
KPA1 040413Z 00012KT 26/15 A3015 RMK A01 T02620149  RH  050%=      5-min Rain = 0
KPA1 040414Z 36011KT 26/15 A3015 RMK A01 T02570150  RH  051%=      5-min Rain = 0
KPA1 040415Z 00012KT 25/15 A3015 RMK A01 T02540150  RH  053%=      5-min Rain = 0
KPA1 040416Z 00015KT 25/15 A3015 RMK A01 T02520151  RH  053%=      5-min Rain = 0
KPA1 040417Z 36015KT 25/15 A3015 RMK A01 T02500151  RH  054%=      5-min Rain = 0
KPA1 040418Z 00016KT 25/15 A3015 RMK A01 T02490151  RH  054%=      5-min Rain = 0
KPA1 040419Z 00014KT 25/15 A3015 RMK A01 T02490150  RH  054%=      5-min Rain = 0
KPA1 040420Z 35015G20KT 25/15 A3015 RMK A01 T02490151  RH  055%=      5-min Rain = 0
KPA1 040421Z 35018KT 25/15 A3015 RMK A01 T02480151  RH  055%=      5-min Rain = 0
KPA1 040422Z 35015KT 25/15 A3016 RMK A01 T02470151  RH  055%=      5-min Rain = 0
KPA1 040423Z 35013KT 25/15 A3016 RMK A01 T02470151  RH  055%=      5-min Rain = 0
KPA1 040424Z 35012KT 25/15 A3015 RMK A01 T02470151  RH  055%=      5-min Rain = 0
KPA1 040425Z 35015KT 25/15 A3015 RMK A01 T02460151  RH  055%=      5-min Rain = 0
KPA1 040426Z 35014KT 25/15 A3015 RMK A01 T02460152  RH  056%=      5-min Rain = 0
KPA1 040427Z 34015KT 25/15 A3015 RMK A01 T02460152  RH  056%=      5-min Rain = 0
KPA1 040428Z 34013KT 25/15 A3015 RMK A01 T02460151  RH  056%=      5-min Rain = 0
KPA1 040429Z 34011KT 25/15 A3015 RMK A01 T02460152  RH  056%=      5-min Rain = 0
KPA1 040430Z 34011KT 25/15 A3015 RMK A01 T02450152  RH  056%=      5-min Rain = 0
KPA1 040431Z 35012KT 25/15 A3015 RMK A01 T02450152  RH  056%=      5-min Rain = 0
KPA1 040432Z 35011KT 25/15 A3015 RMK A01 T02450152  RH  056%=      5-min Rain = 0
KPA1 040433Z 35010KT 25/15 A3016 RMK A01 T02450152  RH  056%=      5-min Rain = 0
KPA1 040434Z 35012KT 25/15 A3016 RMK A01 T02450152  RH  056%=      5-min Rain = 0
KPA1 040435Z 35014KT 25/15 A3016 RMK A01 T02460151  RH  056%=      5-min Rain = 0
KPA1 040436Z 35011KT 25/15 A3016 RMK A01 T02460151  RH  056%=      5-min Rain = 0
KPA1 040437Z 35012KT 25/15 A3016 RMK A01 T02460152  RH  056%=      5-min Rain = 0
KPA1 040438Z 35012KT 25/15 A3016 RMK A01 T02460152  RH  056%=      5-min Rain = 0
KPA1 040439Z 35011KT 25/15 A3016 RMK A01 T02460152  RH  056%=      5-min Rain = 0
KPA1 040440Z 35010KT 25/15 A3016 RMK A01 T02450151  RH  056%=      5-min Rain = 0
KPA1 040441Z 35011KT 25/15 A3015 RMK A01 T02460151  RH  055%=      5-min Rain = 0
KPA1 040442Z 35010KT 25/15 A3015 RMK A01 T02450150  RH  055%=      5-min Rain = 0
KPA1 040443Z 35010KT 25/15 A3015 RMK A01 T02460151  RH  055%=      5-min Rain = 0
KPA1 040444Z 35010KT 25/15 A3015 RMK A01 T02450151  RH  056%=      5-min Rain = 0
KPA1 040445Z 35010KT 25/15 A3015 RMK A01 T02450151  RH  056%=      5-min Rain = 0
KPA1 040446Z 36008KT 24/15 A3015 RMK A01 T02440150  RH  055%=      5-min Rain = 0
KPA1 040447Z 36009KT 25/15 A3015 RMK A01 T02450150  RH  055%=      5-min Rain = 0
KPA1 040448Z 35009KT 24/15 A3015 RMK A01 T02440149  RH  055%=      5-min Rain = 0
KPA1 040449Z 35009KT 24/15 A3015 RMK A01 T02440145  RH  054%=      5-min Rain = 0
KPA1 040450Z 35009KT 25/14 A3015 RMK A01 T02450144  RH  054%=      5-min Rain = 0
KPA1 040451Z 35010KT 25/15 A3015 RMK A01 T02450145  RH  053%=      5-min Rain = 0
KPA1 040452Z 35009KT 25/15 A3015 RMK A01 T02450145  RH  054%=      5-min Rain = 0
KPA1 040453Z 35009KT 25/14 A3015 RMK A01 T02460143  RH  053%=      5-min Rain = 0
KPA1 040454Z 35008KT 25/14 A3015 RMK A01 T02450144  RH  053%=      5-min Rain = 0
KPA1 040455Z 35009KT 25/14 A3015 RMK A01 T02450142  RH  053%=      5-min Rain = 0
KPA1 040456Z 35008KT 25/14 A3015 RMK A01 T02450141  RH  052%=      5-min Rain = 0
KPA1 040457Z 36010KT 25/14 A3015 RMK A01 T02450142  RH  052%=      5-min Rain = 0
KPA1 040458Z 35009KT 25/14 A3015 RMK A01 T02450142  RH  052%=      5-min Rain = 0
KPA1 040459Z 35010KT 25/14 A3015 RMK A01 T02450142  RH  052%=      5-min Rain = 0

Page generated in 0.0788 seconds.